Wetterdaten: Mittwoch, 30.09.2020
Datum Zeit Temp. Aussen Temp. o. S. Temp +5cm Feuchte Auss Luftdruck Regen Sonnenschein Regendauer Solar Windben Empfang
30.09.2020 00:00 12,2 C 11,7 C 11,1 C 97 % 1017,3 hPa 0,0 l/m 0 min 0 min 0 W/m 6,4 km/h (2 Bft) 97,87 %
30.09.2020 00:02 12,3 C 11,7 C 11,1 C 97 % 1017,3 hPa 0,0 l/m 0 min 0 min 0 W/m 3,2 km/h (1 Bft) 95,00 %
30.09.2020 00:04 12,3 C 11,7 C 11,1 C 97 % 1017,3 hPa 0,0 l/m 0 min 0 min 0 W/m 3,2 km/h (1 Bft) 95,74 %
30.09.2020 00:07 12,3 C 11,7 C 11,1 C 97 % 1017,3 hPa 0,0 l/m 0 min 0 min 0 W/m 0,0 km/h (0 Bft) 97,14 %
30.09.2020 00:08 12,3 C 11,7 C 11,1 C 97 % 1017,3 hPa 0,0 l/m 0 min 0 min 0 W/m 0,0 km/h (0 Bft) 100,00 %
30.09.2020 00:10 12,3 C 11,7 C 11,1 C 97 % 1017,3 hPa 0,0 l/m 0 min 0 min 0 W/m 0,0 km/h (0 Bft) 95,74 %
30.09.2020 00:12 12,3 C 11,7 C 11,1 C 97 % 1017,3 hPa 0,0 l/m 0 min 0 min 0 W/m 12,9 km/h (3 Bft) 95,74 %
30.09.2020 00:14 12,3 C 11,7 C 11,1 C 97 % 1017,3 hPa 0,0 l/m 0 min 0 min 0 W/m 0,0 km/h (0 Bft) 97,87 %
30.09.2020 00:16 12,3 C 11,7 C 11,1 C 97 % 1017,3 hPa 0,0 l/m 0 min 0 min 0 W/m 0,0 km/h (0 Bft) 97,87 %
30.09.2020 00:18 12,3 C 11,7 C 11,1 C 97 % 1017,3 hPa 0,0 l/m 0 min 0 min 0 W/m 3,2 km/h (1 Bft) 97,87 %
30.09.2020 00:20 12,3 C 11,7 C 11,1 C 97 % 1017,3 hPa 0,0 l/m 0 min 0 min 0 W/m 6,4 km/h (2 Bft) 95,65 %
30.09.2020 00:22 12,3 C 11,7 C 11,1 C 97 % 1017,4 hPa 0,0 l/m 0 min 0 min 0 W/m 3,2 km/h (1 Bft) 97,87 %
30.09.2020 00:24 12,3 C 11,7 C 11,1 C 97 % 1017,3 hPa 0,0 l/m 0 min 0 min 0 W/m 0,0 km/h (0 Bft) 95,74 %
30.09.2020 00:26 12,3 C 11,7 C 11,1 C 97 % 1017,3 hPa 0,0 l/m 0 min 0 min 0 W/m 3,2 km/h (1 Bft) 97,87 %
30.09.2020 00:28 12,3 C 11,7 C 11,1 C 98 % 1017,3 hPa 0,0 l/m 0 min 0 min 0 W/m 0,0 km/h (0 Bft) 97,87 %
30.09.2020 00:30 12,3 C 11,7 C 11,1 C 98 % 1017,4 hPa 0,0 l/m 0 min 0 min 0 W/m 3,2 km/h (1 Bft) 97,87 %
30.09.2020 00:32 12,3 C 11,7 C 11,1 C 98 % 1017,3 hPa 0,0 l/m 0 min 0 min 0 W/m 0,0 km/h (0 Bft) 97,83 %
30.09.2020 00:34 12,3 C 11,7 C 11,1 C 98 % 1017,3 hPa 0,0 l/m 0 min 0 min 0 W/m 6,4 km/h (2 Bft) 95,74 %
30.09.2020 00:36 12,3 C 11,7 C 11,1 C 98 % 1017,3 hPa 0,0 l/m 0 min 0 min 0 W/m 12,9 km/h (3 Bft) 95,74 %
30.09.2020 00:38 12,3 C 11,7 C 11,1 C 98 % 1017,3 hPa 0,0 l/m 0 min 0 min 0 W/m 6,4 km/h (2 Bft) 95,74 %
30.09.2020 00:40 12,3 C 11,7 C 11,1 C 98 % 1017,3 hPa 0,0 l/m 0 min 0 min 0 W/m 6,4 km/h (2 Bft) 97,87 %
30.09.2020 00:42 12,3 C 11,7 C 11,1 C 98 % 1017,3 hPa 0,0 l/m 0 min 0 min 0 W/m 3,2 km/h (1 Bft) 97,87 %
30.09.2020 00:44 12,3 C 11,7 C 11,1 C 98 % 1017,3 hPa 0,0 l/m 0 min 0 min 0 W/m 3,2 km/h (1 Bft) 95,65 %
30.09.2020 00:46 12,3 C 11,7 C 11,1 C 98 % 1017,3 hPa 0,0 l/m 0 min 0 min 0 W/m 6,4 km/h (2 Bft) 95,74 %
30.09.2020 00:48 12,3 C 11,7 C 11,1 C 98 % 1017,3 hPa 0,0 l/m 0 min 0 min 0 W/m 3,2 km/h (1 Bft) 93,62 %
30.09.2020 00:50 12,3 C 11,7 C 11,1 C 98 % 1017,3 hPa 0,0 l/m 0 min 0 min 0 W/m 0,0 km/h (0 Bft) 95,74 %
30.09.2020 00:52 12,3 C 11,7 C 11,1 C 98 % 1017,2 hPa 0,0 l/m 0 min 0 min 0 W/m 3,2 km/h (1 Bft) 97,73 %
30.09.2020 00:54 12,4 C 11,7 C 11,1 C 98 % 1017,2 hPa 0,0 l/m 0 min 0 min 0 W/m 3,2 km/h (1 Bft) 97,87 %
30.09.2020 00:56 12,4 C 11,7 C 11,1 C 98 % 1017,2 hPa 0,0 l/m 0 min 0 min 0 W/m 16,1 km/h (3 Bft) 95,65 %
30.09.2020 00:58 12,4 C 11,7 C 11,1 C 98 % 1017,2 hPa 0,0 l/m 0 min 0 min 0 W/m 0,0 km/h (0 Bft) 97,87 %
30.09.2020 01:00 12,4 C 11,7 C 11,1 C 98 % 1017,2 hPa 0,0 l/m 0 min 0 min 0 W/m 6,4 km/h (2 Bft) 97,87 %
30.09.2020 01:02 12,4 C 11,7 C 11,1 C 98 % 1017,1 hPa 0,0 l/m 0 min 0 min 0 W/m 6,4 km/h (2 Bft) 95,83 %
30.09.2020 01:04 12,4 C 11,7 C 11,1 C 98 % 1017,1 hPa 0,0 l/m 0 min 0 min 0 W/m 12,9 km/h (3 Bft) 93,62 %
30.09.2020 01:06 12,4 C 11,7 C 11,1 C 98 % 1017,1 hPa 0,0 l/m 0 min 0 min 0 W/m 3,2 km/h (1 Bft) 95,74 %
30.09.2020 01:08 12,4 C 11,7 C 11,1 C 98 % 1017,1 hPa 0,0 l/m 0 min 0 min 0 W/m 3,2 km/h (1 Bft) 97,83 %
30.09.2020 01:10 12,4 C 11,7 C 11,1 C 98 % 1017,1 hPa 0,0 l/m 0 min 0 min 0 W/m 0,0 km/h (0 Bft) 95,74 %
30.09.2020 01:12 12,4 C 11,7 C 11,1 C 98 % 1017,1 hPa 0,0 l/m 0 min 0 min 0 W/m 6,4 km/h (2 Bft) 93,75 %
30.09.2020 01:14 12,4 C 11,7 C 11,1 C 98 % 1017,1 hPa 0,0 l/m 0 min 0 min 0 W/m 12,9 km/h (3 Bft) 93,62 %
30.09.2020 01:16 12,4 C 11,7 C 11,1 C 98 % 1017,1 hPa 0,0 l/m 0 min 0 min 0 W/m 3,2 km/h (1 Bft) 93,62 %
30.09.2020 01:18 12,4 C 11,7 C 11,1 C 98 % 1017,1 hPa 0,0 l/m 0 min 0 min 0 W/m 3,2 km/h (1 Bft) 95,65 %
30.09.2020 01:20 12,4 C 11,7 C 11,1 C 98 % 1017,1 hPa 0,0 l/m 0 min 0 min 0 W/m 3,2 km/h (1 Bft) 93,62 %
30.09.2020 01:22 12,4 C 11,7 C 11,1 C 98 % 1017,1 hPa 0,0 l/m 0 min 0 min 0 W/m 6,4 km/h (2 Bft) 95,74 %
30.09.2020 01:24 12,4 C 11,7 C 11,1 C 98 % 1017,1 hPa 0,0 l/m 0 min 0 min 0 W/m 6,4 km/h (2 Bft) 95,74 %
30.09.2020 01:26 12,4 C 11,7 C 11,1 C 98 % 1017,0 hPa 0,0 l/m 0 min 0 min 0 W/m 0,0 km/h (0 Bft) 95,74 %
30.09.2020 01:28 12,4 C 11,7 C 11,1 C 98 % 1017,0 hPa 0,0 l/m 0 min 0 min 0 W/m 12,9 km/h (3 Bft) 97,87 %
30.09.2020 01:30 12,4 C 11,7 C 11,1 C 98 % 1017,0 hPa 0,0 l/m 0 min 0 min 0 W/m 6,4 km/h (2 Bft) 97,83 %
30.09.2020 01:32 12,4 C 11,7 C 11,1 C 98 % 1017,0 hPa 0,0 l/m 0 min 0 min 0 W/m 3,2 km/h (1 Bft) 95,74 %
30.09.2020 01:34 12,4 C 11,7 C 11,1 C 98 % 1017,0 hPa 0,0 l/m 0 min 0 min 0 W/m 3,2 km/h (1 Bft) 97,87 %
30.09.2020 01:36 12,4 C 11,7 C 11,1 C 98 % 1017,0 hPa 0,0 l/m 0 min 0 min 0 W/m 12,9 km/h (3 Bft) 97,87 %
30.09.2020 01:38 12,4 C 11,7 C 11,1 C 98 % 1017,0 hPa 0,0 l/m 0 min 2 min 0 W/m 3,2 km/h (1 Bft) 97,87 %
30.09.2020 01:40 12,5 C 11,7 C 11,1 C 98 % 1017,0 hPa 0,2 l/m 0 min 2 min 0 W/m 3,2 km/h (1 Bft) 97,87 %
30.09.2020 01:42 12,5 C 11,7 C 11,1 C 98 % 1017,1 hPa 0,0 l/m 0 min 2 min 0 W/m 6,4 km/h (2 Bft) 95,65 %
30.09.2020 01:44 12,5 C 11,7 C 11,1 C 98 % 1017,0 hPa 0,0 l/m 0 min 2 min 0 W/m 3,2 km/h (1 Bft) 97,87 %
30.09.2020 01:46 12,5 C 11,7 C 11,1 C 98 % 1017,0 hPa 0,2 l/m 0 min 2 min 0 W/m 0,0 km/h (0 Bft) 97,87 %
30.09.2020 01:48 12,5 C 11,7 C 11,1 C 98 % 1017,0 hPa 0,2 l/m 0 min 2 min 0 W/m 3,2 km/h (1 Bft) 97,87 %
30.09.2020 01:50 12,5 C 11,7 C 11,1 C 98 % 1017,0 hPa 0,0 l/m 0 min 2 min 0 W/m 3,2 km/h (1 Bft) 95,74 %
30.09.2020 01:52 12,5 C 11,7 C 11,1 C 98 % 1017,0 hPa 0,0 l/m 0 min 2 min 0 W/m 12,9 km/h (3 Bft) 97,87 %
30.09.2020 01:54 12,6 C 11,7 C 11,1 C 98 % 1017,0 hPa 0,0 l/m 0 min 2 min 0 W/m 6,4 km/h (2 Bft) 100,00 %
30.09.2020 01:56 12,6 C 11,7 C 11,1 C 98 % 1017,0 hPa 0,2 l/m 0 min 2 min 0 W/m 3,2 km/h (1 Bft) 100,00 %
30.09.2020 01:58 12,6 C 11,7 C 11,1 C 98 % 1016,9 hPa 0,0 l/m 0 min 0 min 0 W/m 6,4 km/h (2 Bft) 100,00 %
30.09.2020 02:00 12,6 C 11,7 C 11,1 C 98 % 1017,0 hPa 0,0 l/m 0 min 2 min 0 W/m 3,2 km/h (1 Bft) 97,87 %
30.09.2020 02:02 12,6 C 11,7 C 11,1 C 98 % 1017,0 hPa 0,0 l/m 0 min 0 min 0 W/m 6,4 km/h (2 Bft) 100,00 %
30.09.2020 02:04 12,6 C 11,7 C 11,1 C 98 % 1017,0 hPa 0,0 l/m 0 min 0 min 0 W/m 3,2 km/h (1 Bft) 100,00 %
30.09.2020 02:06 12,6 C 11,7 C 11,1 C 98 % 1017,0 hPa 0,0 l/m 0 min 0 min 0 W/m 0,0 km/h (0 Bft) 97,83 %
30.09.2020 02:08 12,6 C 11,7 C 11,1 C 98 % 1017,0 hPa 0,0 l/m 0 min 0 min 0 W/m 6,4 km/h (2 Bft) 100,00 %
30.09.2020 02:10 12,6 C 11,7 C 11,1 C 98 % 1017,0 hPa 0,0 l/m 0 min 0 min 0 W/m 6,4 km/h (2 Bft) 100,00 %
30.09.2020 02:12 12,6 C 11,7 C 11,1 C 98 % 1017,0 hPa 0,0 l/m 0 min 0 min 0 W/m 3,2 km/h (1 Bft) 97,87 %
30.09.2020 02:14 12,6 C 11,7 C 11,1 C 98 % 1017,0 hPa 0,0 l/m 0 min 0 min 0 W/m 3,2 km/h (1 Bft) 100,00 %
30.09.2020 02:16 12,6 C 11,7 C 11,1 C 98 % 1017,0 hPa 0,0 l/m 0 min 0 min 0 W/m 3,2 km/h (1 Bft) 100,00 %
30.09.2020 02:18 12,6 C 11,7 C 11,1 C 98 % 1017,0 hPa 0,0 l/m 0 min 0 min 0 W/m 12,9 km/h (3 Bft) 100,00 %
30.09.2020 02:20 12,6 C 11,7 C 11,1 C 98 % 1016,9 hPa 0,0 l/m 0 min 0 min 0 W/m 3,2 km/h (1 Bft) 97,87 %
30.09.2020 02:22 12,6 C 11,7 C 11,1 C 98 % 1016,9 hPa 0,0 l/m 0 min 0 min 0 W/m 6,4 km/h (2 Bft) 100,00 %
30.09.2020 02:24 12,6 C 11,7 C 11,1 C 98 % 1016,9 hPa 0,0 l/m 0 min 0 min 0 W/m 3,2 km/h (1 Bft) 100,00 %
30.09.2020 02:26 12,6 C 11,7 C 11,1 C 98 % 1016,9 hPa 0,0 l/m 0 min 0 min 0 W/m 3,2 km/h (1 Bft) 100,00 %
30.09.2020 02:28 12,6 C 11,7 C 11,1 C 98 % 1016,9 hPa 0,0 l/m 0 min 0 min 0 W/m 0,0 km/h (0 Bft) 100,00 %
30.09.2020 02:30 12,6 C 11,7 C 11,1 C 98 % 1016,9 hPa 0,0 l/m 0 min 0 min 0 W/m 0,0 km/h (0 Bft) 100,00 %
30.09.2020 02:32 12,6 C 11,7 C 11,1 C 98 % 1016,9 hPa 0,0 l/m 0 min 0 min 0 W/m 0,0 km/h (0 Bft) 100,00 %
30.09.2020 02:34 12,6 C 11,7 C 11,1 C 98 % 1017,0 hPa 0,0 l/m 0 min 0 min 0 W/m 6,4 km/h (2 Bft) 100,00 %
30.09.2020 02:36 12,6 C 11,7 C 11,1 C 98 % 1017,0 hPa 0,0 l/m 0 min 0 min 0 W/m 3,2 km/h (1 Bft) 100,00 %
30.09.2020 02:38 12,6 C 11,7 C 11,1 C 98 % 1016,9 hPa 0,0 l/m 0 min 0 min 0 W/m 3,2 km/h (1 Bft) 100,00 %
30.09.2020 02:40 12,6 C 11,7 C 11,1 C 98 % 1016,9 hPa 0,0 l/m 0 min 0 min 0 W/m 3,2 km/h (1 Bft) 100,00 %
30.09.2020 02:42 12,6 C 11,7 C 11,1 C 98 % 1017,0 hPa 0,0 l/m 0 min 0 min 0 W/m 3,2 km/h (1 Bft) 100,00 %
30.09.2020 02:44 12,6 C 11,7 C 11,1 C 98 % 1017,0 hPa 0,0 l/m 0 min 0 min 0 W/m 12,9 km/h (3 Bft) 100,00 %
30.09.2020 02:46 12,6 C 11,7 C 11,1 C 98 % 1017,0 hPa 0,0 l/m 0 min 0 min 0 W/m 3,2 km/h (1 Bft) 100,00 %
30.09.2020 02:48 12,6 C 11,7 C 11,1 C 98 % 1016,9 hPa 0,0 l/m 0 min 0 min 0 W/m 0,0 km/h (0 Bft) 97,87 %
30.09.2020 02:50 12,6 C 11,7 C 11,1 C 98 % 1016,9 hPa 0,0 l/m 0 min 0 min 0 W/m 3,2 km/h (1 Bft) 97,83 %
30.09.2020 02:52 12,6 C 11,7 C 11,1 C 98 % 1016,9 hPa 0,0 l/m 0 min 0 min 0 W/m 3,2 km/h (1 Bft) 100,00 %
30.09.2020 02:54 12,6 C 11,7 C 11,1 C 98 % 1016,9 hPa 0,0 l/m 0 min 0 min 0 W/m 6,4 km/h (2 Bft) 100,00 %
30.09.2020 02:56 12,6 C 11,7 C 11,1 C 98 % 1016,9 hPa 0,0 l/m 0 min 0 min 0 W/m 3,2 km/h (1 Bft) 100,00 %
30.09.2020 02:58 12,6 C 11,7 C 11,1 C 98 % 1016,9 hPa 0,0 l/m 0 min 0 min 0 W/m 0,0 km/h (0 Bft) 97,87 %
30.09.2020 03:00 12,6 C 11,7 C 11,1 C 98 % 1016,9 hPa 0,0 l/m 0 min 0 min 0 W/m 0,0 km/h (0 Bft) 97,83 %
30.09.2020 03:02 12,6 C 11,7 C 11,1 C 98 % 1016,9 hPa 0,0 l/m 0 min 0 min 0 W/m 6,4 km/h (2 Bft) 100,00 %
30.09.2020 03:04 12,6 C 11,7 C 11,1 C 98 % 1016,8 hPa 0,0 l/m 0 min 0 min 0 W/m 0,0 km/h (0 Bft) 97,87 %
30.09.2020 03:06 12,6 C 11,7 C 11,1 C 98 % 1016,8 hPa 0,0 l/m 0 min 0 min 0 W/m 6,4 km/h (2 Bft) 100,00 %
30.09.2020 03:08 12,6 C 11,7 C 11,1 C 99 % 1016,8 hPa 0,0 l/m 0 min 0 min 0 W/m 0,0 km/h (0 Bft) 97,87 %
30.09.2020 03:10 12,6 C 11,7 C 11,1 C 99 % 1016,8 hPa 0,0 l/m 0 min 0 min 0 W/m 3,2 km/h (1 Bft) 95,74 %
30.09.2020 03:12 12,6 C 11,7 C 11,1 C 99 % 1016,8 hPa 0,0 l/m 0 min 0 min 0 W/m 3,2 km/h (1 Bft) 97,83 %
30.09.2020 03:14 12,6 C 11,7 C 11,1 C 99 % 1016,8 hPa 0,0 l/m 0 min 0 min 0 W/m 0,0 km/h (0 Bft) 100,00 %
30.09.2020 03:16 12,6 C 11,7 C 11,1 C 99 % 1016,8 hPa 0,0 l/m 0 min 0 min 0 W/m 3,2 km/h (1 Bft) 100,00 %
30.09.2020 03:18 12,6 C 11,7 C 11,1 C 99 % 1016,8 hPa 0,0 l/m 0 min 0 min 0 W/m 3,2 km/h (1 Bft) 100,00 %
30.09.2020 03:20 12,6 C 11,7 C 11,1 C 99 % 1016,8 hPa 0,0 l/m 0 min 0 min 0 W/m 3,2 km/h (1 Bft) 97,87 %
30.09.2020 03:22 12,6 C 11,7 C 11,1 C 99 % 1016,8 hPa 0,0 l/m 0 min 0 min 0 W/m 0,0 km/h (0 Bft) 97,87 %
30.09.2020 03:24 12,6 C 11,7 C 11,1 C 99 % 1016,8 hPa 0,0 l/m 0 min 0 min 0 W/m 0,0 km/h (0 Bft) 100,00 %
30.09.2020 03:26 12,6 C 11,7 C 11,1 C 99 % 1016,7 hPa 0,0 l/m 0 min 0 min 0 W/m 0,0 km/h (0 Bft) 97,87 %
30.09.2020 03:28 12,6 C 11,7 C 11,1 C 99 % 1016,7 hPa 0,0 l/m 0 min 0 min 0 W/m 0,0 km/h (0 Bft) 97,87 %
30.09.2020 03:30 12,6 C 11,7 C 11,1 C 99 % 1016,7 hPa 0,0 l/m 0 min 0 min 0 W/m 3,2 km/h (1 Bft) 91,49 %
30.09.2020 03:32 12,6 C 11,7 C 11,1 C 99 % 1016,7 hPa 0,0 l/m 0 min 0 min 0 W/m 3,2 km/h (1 Bft) 93,62 %
30.09.2020 03:34 12,6 C 11,7 C 11,1 C 99 % 1016,7 hPa 0,0 l/m 0 min 0 min 0 W/m 3,2 km/h (1 Bft) 95,74 %
30.09.2020 03:36 12,6 C 11,7 C 11,1 C 99 % 1016,7 hPa 0,0 l/m 0 min 0 min 0 W/m 0,0 km/h (0 Bft) 93,48 %
30.09.2020 03:38 12,6 C 11,7 C 11,1 C 99 % 1016,7 hPa 0,0 l/m 0 min 0 min 0 W/m 0,0 km/h (0 Bft) 95,74 %
30.09.2020 03:40 12,6 C 11,7 C 11,1 C 99 % 1016,6 hPa 0,0 l/m 0 min 0 min 0 W/m 0,0 km/h (0 Bft) 95,74 %
30.09.2020 03:42 12,6 C 11,7 C 11,1 C 99 % 1016,6 hPa 0,0 l/m 0 min 0 min 0 W/m 3,2 km/h (1 Bft) 95,74 %
30.09.2020 03:44 12,6 C 11,7 C 11,1 C 99 % 1016,6 hPa 0,0 l/m 0 min 0 min 0 W/m 3,2 km/h (1 Bft) 93,62 %
30.09.2020 03:46 12,6 C 11,7 C 11,1 C 99 % 1016,6 hPa 0,0 l/m 0 min 0 min 0 W/m 0,0 km/h (0 Bft) 95,74 %
30.09.2020 03:48 12,6 C 11,7 C 11,1 C 99 % 1016,6 hPa 0,0 l/m 0 min 0 min 0 W/m 0,0 km/h (0 Bft) 93,48 %
30.09.2020 03:50 12,6 C 11,7 C 11,1 C 99 % 1016,6 hPa 0,0 l/m 0 min 0 min 0 W/m 3,2 km/h (1 Bft) 93,62 %
30.09.2020 03:52 12,6 C 11,7 C 11,1 C 99 % 1016,5 hPa 0,0 l/m 0 min 0 min 0 W/m 6,4 km/h (2 Bft) 93,62 %
30.09.2020 03:54 12,6 C 11,7 C 11,1 C 99 % 1016,5 hPa 0,0 l/m 0 min 0 min 0 W/m 0,0 km/h (0 Bft) 93,62 %
30.09.2020 03:56 12,6 C 11,7 C 11,1 C 99 % 1016,5 hPa 0,0 l/m 0 min 0 min 0 W/m 0,0 km/h (0 Bft) 92,31 %
30.09.2020 03:58 12,6 C 11,7 C 11,1 C 99 % 1016,4 hPa 0,0 l/m 0 min 0 min 0 W/m 0,0 km/h (0 Bft) 93,62 %
30.09.2020 04:00 12,6 C 11,7 C 11,1 C 99 % 1016,5 hPa 0,0 l/m 0 min 0 min 0 W/m 3,2 km/h (1 Bft) 93,62 %
30.09.2020 04:02 12,6 C 11,7 C 11,1 C 99 % 1016,5 hPa 0,0 l/m 0 min 0 min 0 W/m 0,0 km/h (0 Bft) 100,00 %
30.09.2020 04:04 12,6 C 11,7 C 11,1 C 99 % 1016,4 hPa 0,0 l/m 0 min 0 min 0 W/m 0,0 km/h (0 Bft) 91,49 %
30.09.2020 04:06 12,6 C 11,7 C 11,1 C 99 % 1016,4 hPa 0,0 l/m 0 min 0 min 0 W/m 0,0 km/h (0 Bft) 91,49 %
30.09.2020 04:08 12,6 C 11,7 C 11,1 C 99 % 1016,4 hPa 0,0 l/m 0 min 0 min 0 W/m 3,2 km/h (1 Bft) 91,30 %
30.09.2020 04:10 12,6 C 11,7 C 11,1 C 99 % 1016,4 hPa 0,0 l/m 0 min 0 min 0 W/m 3,2 km/h (1 Bft) 95,74 %
30.09.2020 04:12 12,6 C 11,7 C 11,1 C 99 % 1016,3 hPa 0,0 l/m 0 min 0 min 0 W/m 0,0 km/h (0 Bft) 95,74 %
30.09.2020 04:14 12,6 C 11,7 C 11,1 C 99 % 1016,3 hPa 0,0 l/m 0 min 0 min 0 W/m 0,0 km/h (0 Bft) 95,74 %
30.09.2020 04:16 12,6 C 11,7 C 11,1 C 99 % 1016,4 hPa 0,0 l/m 0 min 0 min 0 W/m 0,0 km/h (0 Bft) 95,74 %
30.09.2020 04:18 12,6 C 11,7 C 11,1 C 99 % 1016,3 hPa 0,0 l/m 0 min 0 min 0 W/m 0,0 km/h (0 Bft) 95,74 %
30.09.2020 04:20 12,6 C 11,7 C 11,1 C 99 % 1016,3 hPa 0,0 l/m 0 min 0 min 0 W/m 12,9 km/h (3 Bft) 95,65 %
30.09.2020 04:22 12,6 C 11,7 C 11,1 C 99 % 1016,3 hPa 0,0 l/m 0 min 0 min 0 W/m 3,2 km/h (1 Bft) 95,74 %
30.09.2020 04:24 12,6 C 11,7 C 11,1 C 99 % 1016,3 hPa 0,0 l/m 0 min 0 min 0 W/m 0,0 km/h (0 Bft) 95,74 %
30.09.2020 04:26 12,6 C 11,7 C 11,1 C 99 % 1016,3 hPa 0,0 l/m 0 min 0 min 0 W/m 0,0 km/h (0 Bft) 93,62 %
30.09.2020 04:28 12,6 C 11,7 C 11,1 C 99 % 1016,3 hPa 0,0 l/m 0 min 0 min 0 W/m 0,0 km/h (0 Bft) 97,87 %
30.09.2020 04:30 12,6 C 11,7 C 11,1 C 99 % 1016,4 hPa 0,0 l/m 0 min 0 min 0 W/m 0,0 km/h (0 Bft) 97,83 %
30.09.2020 04:32 12,6 C 11,7 C 11,1 C 99 % 1016,3 hPa 0,0 l/m 0 min 0 min 0 W/m 3,2 km/h (1 Bft) 97,87 %
30.09.2020 04:34 12,6 C 11,7 C 11,1 C 99 % 1016,3 hPa 0,0 l/m 0 min 0 min 0 W/m 0,0 km/h (0 Bft) 100,00 %
30.09.2020 04:36 12,6 C 11,1 C 11,1 C 99 % 1016,3 hPa 0,0 l/m 0 min 0 min 0 W/m 3,2 km/h (1 Bft) 97,87 %
30.09.2020 04:38 12,5 C 11,1 C 11,1 C 99 % 1016,3 hPa 0,0 l/m 0 min 0 min 0 W/m 0,0 km/h (0 Bft) 100,00 %
30.09.2020 04:40 12,5 C 11,1 C 11,1 C 99 % 1016,3 hPa 0,0 l/m 0 min 0 min 0 W/m 0,0 km/h (0 Bft) 100,00 %
30.09.2020 04:42 12,5 C 11,1 C 11,1 C 99 % 1016,3 hPa 0,0 l/m 0 min 0 min 0 W/m 0,0 km/h (0 Bft) 97,83 %
30.09.2020 04:44 12,5 C 11,1 C 11,1 C 99 % 1016,3 hPa 0,0 l/m 0 min 0 min 0 W/m 3,2 km/h (1 Bft) 100,00 %
30.09.2020 04:46 12,5 C 11,1 C 11,1 C 99 % 1016,2 hPa 0,0 l/m 0 min 0 min 0 W/m 0,0 km/h (0 Bft) 97,87 %
30.09.2020 04:48 12,5 C 11,1 C 11,1 C 99 % 1016,2 hPa 0,0 l/m 0 min 0 min 0 W/m 0,0 km/h (0 Bft) 100,00 %
30.09.2020 04:50 12,4 C 11,1 C 11,1 C 99 % 1016,2 hPa 0,0 l/m 0 min 0 min 0 W/m 0,0 km/h (0 Bft) 97,87 %
30.09.2020 04:52 12,4 C 11,1 C 11,1 C 99 % 1016,2 hPa 0,0 l/m 0 min 0 min 0 W/m 0,0 km/h (0 Bft) 100,00 %
30.09.2020 04:54 12,4 C 11,1 C 11,1 C 99 % 1016,3 hPa 0,0 l/m 0 min 0 min 0 W/m 3,2 km/h (1 Bft) 100,00 %
30.09.2020 04:56 12,4 C 11,1 C 11,1 C 99 % 1016,2 hPa 0,0 l/m 0 min 0 min 0 W/m 3,2 km/h (1 Bft) 97,87 %
30.09.2020 04:58 12,4 C 11,1 C 11,1 C 99 % 1016,2 hPa 0,0 l/m 0 min 0 min 0 W/m 0,0 km/h (0 Bft) 100,00 %
30.09.2020 05:00 12,4 C 11,1 C 11,1 C 99 % 1016,2 hPa 0,0 l/m 0 min 0 min 0 W/m 3,2 km/h (1 Bft) 100,00 %
30.09.2020 05:02 12,4 C 11,1 C 11,1 C 99 % 1016,2 hPa 0,0 l/m 0 min 0 min 0 W/m 0,0 km/h (0 Bft) 100,00 %
30.09.2020 05:04 12,3 C 11,1 C 10,6 C 99 % 1016,1 hPa 0,0 l/m 0 min 0 min 0 W/m 0,0 km/h (0 Bft) 100,00 %
30.09.2020 05:06 12,3 C 11,1 C 10,6 C 99 % 1016,1 hPa 0,0 l/m 0 min 0 min 0 W/m 0,0 km/h (0 Bft) 100,00 %
30.09.2020 05:08 12,3 C 11,1 C 10,6 C 99 % 1016,1 hPa 0,0 l/m 0 min 0 min 0 W/m 0,0 km/h (0 Bft) 100,00 %
30.09.2020 05:10 12,3 C 11,1 C 10,6 C 99 % 1016,1 hPa 0,0 l/m 0 min 0 min 0 W/m 0,0 km/h (0 Bft) 100,00 %
30.09.2020 05:12 12,3 C 11,1 C 10,6 C 99 % 1016,1 hPa 0,0 l/m 0 min 0 min 0 W/m 0,0 km/h (0 Bft) 97,87 %
30.09.2020 05:14 12,3 C 11,1 C 10,6 C 99 % 1016,1 hPa 0,0 l/m 0 min 0 min 0 W/m 0,0 km/h (0 Bft) 100,00 %
30.09.2020 05:16 12,3 C 11,1 C 10,6 C 99 % 1016,1 hPa 0,0 l/m 0 min 0 min 0 W/m 0,0 km/h (0 Bft) 100,00 %
30.09.2020 05:18 12,3 C 11,1 C 10,6 C 99 % 1016,1 hPa 0,0 l/m 0 min 0 min 0 W/m 3,2 km/h (1 Bft) 100,00 %
30.09.2020 05:20 12,3 C 11,1 C 11,1 C 99 % 1016,1 hPa 0,0 l/m 0 min 0 min 0 W/m 0,0 km/h (0 Bft) 97,87 %
30.09.2020 05:22 12,3 C 11,1 C 11,1 C 99 % 1016,1 hPa 0,0 l/m 0 min 0 min 0 W/m 0,0 km/h (0 Bft) 97,87 %
30.09.2020 05:24 12,3 C 11,1 C 11,1 C 99 % 1016,1 hPa 0,0 l/m 0 min 0 min 0 W/m 0,0 km/h (0 Bft) 97,87 %
30.09.2020 05:26 12,2 C 11,1 C 11,1 C 99 % 1016,1 hPa 0,0 l/m 0 min 0 min 0 W/m 0,0 km/h (0 Bft) 100,00 %
30.09.2020 05:28 12,2 C 11,1 C 11,1 C 99 % 1016,1 hPa 0,0 l/m 0 min 0 min 0 W/m 0,0 km/h (0 Bft) 100,00 %
30.09.2020 05:30 12,2 C 11,1 C 11,1 C 99 % 1016,1 hPa 0,0 l/m 0 min 0 min 0 W/m 0,0 km/h (0 Bft) 97,83 %
30.09.2020 05:32 12,2 C 11,1 C 11,1 C 99 % 1016,1 hPa 0,0 l/m 0 min 0 min 0 W/m 0,0 km/h (0 Bft) 100,00 %
30.09.2020 05:34 12,3 C 11,1 C 11,1 C 99 % 1016,1 hPa 0,0 l/m 0 min 0 min 0 W/m 0,0 km/h (0 Bft) 100,00 %
30.09.2020 05:36 12,3 C 11,1 C 11,1 C 99 % 1016,1 hPa 0,0 l/m 0 min 0 min 0 W/m 0,0 km/h (0 Bft) 100,00 %
30.09.2020 05:38 12,3 C 11,1 C 11,1 C 99 % 1016,1 hPa 0,0 l/m 0 min 0 min 0 W/m 0,0 km/h (0 Bft) 100,00 %
30.09.2020 05:40 12,3 C 11,1 C 11,1 C 99 % 1016,1 hPa 0,0 l/m 0 min 0 min 0 W/m 6,4 km/h (2 Bft) 100,00 %
30.09.2020 05:42 12,3 C 11,1 C 11,1 C 99 % 1016,1 hPa 0,0 l/m 0 min 0 min 0 W/m 0,0 km/h (0 Bft) 100,00 %
30.09.2020 05:44 12,3 C 11,7 C 11,1 C 99 % 1016,0 hPa 0,0 l/m 0 min 0 min 0 W/m 0,0 km/h (0 Bft) 100,00 %
30.09.2020 05:46 12,3 C 11,7 C 11,1 C 99 % 1016,0 hPa 0,0 l/m 0 min 0 min 0 W/m 0,0 km/h (0 Bft) 97,87 %
30.09.2020 05:48 12,3 C 11,7 C 11,1 C 99 % 1016,0 hPa 0,0 l/m 0 min 0 min 0 W/m 0,0 km/h (0 Bft) 100,00 %
30.09.2020 05:50 12,3 C 11,7 C 11,1 C 99 % 1016,1 hPa 0,0 l/m 0 min 0 min 0 W/m 0,0 km/h (0 Bft) 97,87 %
30.09.2020 05:52 12,3 C 11,7 C 11,1 C 99 % 1016,1 hPa 0,0 l/m 0 min 0 min 0 W/m 0,0 km/h (0 Bft) 97,83 %
30.09.2020 05:54 12,3 C 11,7 C 11,1 C 99 % 1016,1 hPa 0,0 l/m 0 min 0 min 0 W/m 0,0 km/h (0 Bft) 100,00 %
30.09.2020 05:56 12,3 C 11,7 C 11,1 C 99 % 1016,1 hPa 0,0 l/m 0 min 0 min 0 W/m 0,0 km/h (0 Bft) 97,87 %
30.09.2020 05:58 12,3 C 11,7 C 11,1 C 99 % 1016,1 hPa 0,0 l/m 0 min 0 min 0 W/m 0,0 km/h (0 Bft) 100,00 %
30.09.2020 06:00 12,3 C 11,7 C 11,1 C 99 % 1016,1 hPa 0,0 l/m 0 min 0 min 0 W/m 0,0 km/h (0 Bft) 100,00 %
30.09.2020 06:02 12,3 C 11,7 C 11,1 C 99 % 1016,1 hPa 0,0 l/m 0 min 0 min 0 W/m 0,0 km/h (0 Bft) 100,00 %
30.09.2020 06:04 12,3 C 11,7 C 11,1 C 99 % 1016,1 hPa 0,0 l/m 0 min 0 min 0 W/m 0,0 km/h (0 Bft) 100,00 %
30.09.2020 06:08 12,4 C 11,7 C 11,1 C 99 % 1016,1 hPa 0,0 l/m 0 min 0 min 0 W/m 0,0 km/h (0 Bft) 98,94 %
30.09.2020 06:10 12,4 C 11,7 C 11,1 C 99 % 1016,1 hPa 0,0 l/m 0 min 0 min 0 W/m 0,0 km/h (0 Bft) 100,00 %
30.09.2020 06:12 12,4 C 11,7 C 11,1 C 99 % 1016,1 hPa 0,0 l/m 0 min 0 min 0 W/m 0,0 km/h (0 Bft) 97,87 %
30.09.2020 06:14 12,4 C 11,7 C 11,1 C 99 % 1016,1 hPa 0,0 l/m 0 min 0 min 0 W/m 0,0 km/h (0 Bft) 100,00 %
30.09.2020 06:16 12,4 C 11,7 C 11,1 C 99 % 1016,0 hPa 0,0 l/m 0 min 0 min 0 W/m 3,2 km/h (1 Bft) 97,87 %
30.09.2020 06:18 12,4 C 11,7 C 11,1 C 99 % 1016,0 hPa 0,0 l/m 0 min 0 min 0 W/m 12,9 km/h (3 Bft) 97,87 %
30.09.2020 06:20 12,4 C 11,7 C 11,1 C 99 % 1016,0 hPa 0,0 l/m 0 min 0 min 0 W/m 0,0 km/h (0 Bft) 97,87 %
30.09.2020 06:22 12,4 C 11,7 C 11,1 C 99 % 1016,0 hPa 0,0 l/m 0 min 0 min 0 W/m 0,0 km/h (0 Bft) 97,83 %
30.09.2020 06:24 12,4 C 11,7 C 11,1 C 99 % 1016,0 hPa 0,0 l/m 0 min 0 min 0 W/m 3,2 km/h (1 Bft) 95,74 %
30.09.2020 06:26 12,4 C 11,7 C 11,1 C 99 % 1015,9 hPa 0,0 l/m 0 min 0 min 0 W/m 6,4 km/h (2 Bft) 97,87 %
30.09.2020 06:28 12,5 C 11,7 C 11,1 C 99 % 1015,9 hPa 0,0 l/m 0 min 0 min 0 W/m 3,2 km/h (1 Bft) 97,87 %
30.09.2020 06:30 12,5 C 11,7 C 11,1 C 99 % 1015,9 hPa 0,0 l/m 0 min 0 min 0 W/m 3,2 km/h (1 Bft) 97,87 %
30.09.2020 06:32 12,5 C 11,7 C 11,1 C 99 % 1015,9 hPa 0,0 l/m 0 min 0 min 0 W/m 3,2 km/h (1 Bft) 97,87 %
30.09.2020 06:34 12,5 C 11,7 C 11,1 C 99 % 1015,9 hPa 0,0 l/m 0 min 0 min 0 W/m 3,2 km/h (1 Bft) 100,00 %
30.09.2020 06:36 12,5 C 11,7 C 11,1 C 99 % 1015,9 hPa 0,0 l/m 0 min 0 min 0 W/m 0,0 km/h (0 Bft) 95,74 %
30.09.2020 06:38 12,5 C 11,7 C 11,1 C 99 % 1015,9 hPa 0,0 l/m 0 min 0 min 0 W/m 6,4 km/h (2 Bft) 95,74 %
30.09.2020 06:40 12,5 C 11,7 C 11,1 C 99 % 1015,8 hPa 0,0 l/m 0 min 0 min 0 W/m 12,9 km/h (3 Bft) 95,74 %
30.09.2020 06:42 12,5 C 11,7 C 11,1 C 99 % 1015,8 hPa 0,0 l/m 0 min 0 min 0 W/m 3,2 km/h (1 Bft) 93,62 %
30.09.2020 06:44 12,5 C 11,7 C 11,1 C 99 % 1015,8 hPa 0,0 l/m 0 min 0 min 0 W/m 3,2 km/h (1 Bft) 95,65 %
30.09.2020 06:46 12,5 C 11,7 C 11,1 C 99 % 1015,8 hPa 0,0 l/m 0 min 0 min 0 W/m 12,9 km/h (3 Bft) 93,62 %
30.09.2020 06:48 12,5 C 11,7 C 11,1 C 99 % 1015,7 hPa 0,0 l/m 0 min 0 min 0 W/m 12,9 km/h (3 Bft) 95,74 %
30.09.2020 06:50 12,5 C 11,1 C 11,1 C 99 % 1015,8 hPa 0,0 l/m 0 min 0 min 0 W/m 3,2 km/h (1 Bft) 95,74 %
30.09.2020 06:52 12,5 C 11,1 C 11,1 C 99 % 1015,8 hPa 0,0 l/m 0 min 0 min 0 W/m 3,2 km/h (1 Bft) 95,74 %
30.09.2020 06:54 12,5 C 11,1 C 11,1 C 99 % 1015,8 hPa 0,0 l/m 0 min 0 min 0 W/m 0,0 km/h (0 Bft) 93,62 %
30.09.2020 06:56 12,4 C 11,1 C 11,1 C 99 % 1015,7 hPa 0,0 l/m 0 min 0 min 0 W/m 3,2 km/h (1 Bft) 95,65 %
30.09.2020 06:58 12,4 C 11,1 C 11,1 C 99 % 1015,8 hPa 0,0 l/m 0 min 0 min 0 W/m 0,0 km/h (0 Bft) 95,74 %
30.09.2020 07:00 12,4 C 11,1 C 11,1 C 99 % 1015,8 hPa 0,0 l/m 0 min 0 min 0 W/m 6,4 km/h (2 Bft) 95,74 %
30.09.2020 07:02 12,4 C 11,1 C 11,1 C 99 % 1015,7 hPa 0,0 l/m 0 min 0 min 0 W/m 3,2 km/h (1 Bft) 91,67 %
30.09.2020 07:04 12,4 C 11,1 C 11,1 C 99 % 1015,7 hPa 0,0 l/m 0 min 0 min 0 W/m 0,0 km/h (0 Bft) 95,74 %
30.09.2020 07:06 12,4 C 11,1 C 11,1 C 99 % 1015,7 hPa 0,0 l/m 0 min 0 min 0 W/m 0,0 km/h (0 Bft) 95,74 %
30.09.2020 07:08 12,4 C 11,1 C 11,1 C 99 % 1015,8 hPa 0,0 l/m 0 min 0 min 0 W/m 0,0 km/h (0 Bft) 95,65 %
30.09.2020 07:10 12,4 C 11,1 C 11,1 C 99 % 1015,8 hPa 0,0 l/m 0 min 0 min 0 W/m 0,0 km/h (0 Bft) 93,62 %
30.09.2020 07:12 12,3 C 11,1 C 11,1 C 99 % 1015,9 hPa 0,0 l/m 0 min 0 min 0 W/m 0,0 km/h (0 Bft) 95,74 %
30.09.2020 07:14 12,3 C 11,1 C 11,1 C 100 % 1015,9 hPa 0,0 l/m 0 min 0 min 0 W/m 0,0 km/h (0 Bft) 95,74 %
30.09.2020 07:16 12,3 C 11,1 C 11,1 C 100 % 1015,8 hPa 0,0 l/m 0 min 0 min 0 W/m 0,0 km/h (0 Bft) 95,74 %
30.09.2020 07:18 12,3 C 11,1 C 11,1 C 100 % 1015,9 hPa 0,0 l/m 0 min 0 min 0 W/m 0,0 km/h (0 Bft) 95,74 %
30.09.2020 07:20 12,3 C 11,1 C 11,1 C 100 % 1015,8 hPa 0,0 l/m 0 min 0 min 0 W/m 0,0 km/h (0 Bft) 93,48 %
30.09.2020 07:22 12,3 C 11,1 C 11,1 C 100 % 1015,9 hPa 0,0 l/m 0 min 0 min 0 W/m 0,0 km/h (0 Bft) 95,74 %
30.09.2020 07:24 12,3 C 11,1 C 11,1 C 100 % 1015,9 hPa 0,0 l/m 0 min 0 min 0 W/m 0,0 km/h (0 Bft) 97,87 %
30.09.2020 07:26 12,3 C 11,1 C 11,1 C 100 % 1015,9 hPa 0,0 l/m 0 min 0 min 0 W/m 3,2 km/h (1 Bft) 97,87 %
30.09.2020 07:28 12,3 C 11,1 C 11,1 C 100 % 1015,9 hPa 0,0 l/m 0 min 0 min 0 W/m 3,2 km/h (1 Bft) 97,87 %
30.09.2020 07:30 12,3 C 11,1 C 11,1 C 100 % 1015,9 hPa 0,0 l/m 0 min 0 min 0 W/m 0,0 km/h (0 Bft) 97,87 %
30.09.2020 07:32 12,3 C 11,1 C 11,1 C 100 % 1015,9 hPa 0,0 l/m 0 min 0 min 0 W/m 0,0 km/h (0 Bft) 95,74 %
30.09.2020 07:34 12,3 C 11,1 C 11,1 C 100 % 1016,0 hPa 0,0 l/m 0 min 0 min 0 W/m 0,0 km/h (0 Bft) 97,87 %
30.09.2020 07:36 12,3 C 11,1 C 11,1 C 100 % 1016,0 hPa 0,0 l/m 0 min 0 min 0 W/m 0,0 km/h (0 Bft) 97,87 %
30.09.2020 07:38 12,3 C 11,7 C 11,1 C 100 % 1016,0 hPa 0,0 l/m 0 min 0 min 0 W/m 0,0 km/h (0 Bft) 95,74 %
30.09.2020 07:40 12,3 C 11,7 C 11,1 C 100 % 1016,1 hPa 0,0 l/m 0 min 0 min 0 W/m 0,0 km/h (0 Bft) 97,87 %
30.09.2020 07:42 12,3 C 11,7 C 11,1 C 100 % 1016,1 hPa 0,0 l/m 0 min 0 min 0 W/m 0,0 km/h (0 Bft) 95,65 %
30.09.2020 07:44 12,3 C 11,7 C 11,1 C 100 % 1016,1 hPa 0,0 l/m 0 min 0 min 0 W/m 0,0 km/h (0 Bft) 97,87 %
30.09.2020 07:46 12,3 C 11,7 C 11,1 C 100 % 1016,1 hPa 0,0 l/m 0 min 0 min 5 W/m 0,0 km/h (0 Bft) 95,74 %
30.09.2020 07:48 12,3 C 11,7 C 11,1 C 100 % 1016,1 hPa 0,0 l/m 0 min 0 min 6 W/m 0,0 km/h (0 Bft) 95,74 %
30.09.2020 07:50 12,3 C 11,7 C 11,1 C 100 % 1016,1 hPa 0,0 l/m 0 min 0 min 8 W/m 0,0 km/h (0 Bft) 97,87 %
30.09.2020 07:52 12,3 C 11,7 C 11,1 C 100 % 1016,1 hPa 0,0 l/m 0 min 0 min 12 W/m 0,0 km/h (0 Bft) 97,87 %
30.09.2020 07:54 12,3 C 11,7 C 11,1 C 100 % 1016,1 hPa 0,0 l/m 0 min 0 min 13 W/m 0,0 km/h (0 Bft) 95,65 %
30.09.2020 07:56 12,3 C 11,7 C 11,1 C 100 % 1016,1 hPa 0,0 l/m 0 min 0 min 12 W/m 0,0 km/h (0 Bft) 95,74 %
30.09.2020 07:58 12,3 C 11,7 C 11,1 C 100 % 1016,1 hPa 0,0 l/m 0 min 0 min 14 W/m 0,0 km/h (0 Bft) 95,74 %
30.09.2020 08:00 12,3 C 11,7 C 11,1 C 100 % 1016,1 hPa 0,0 l/m 0 min 0 min 15 W/m 0,0 km/h (0 Bft) 97,87 %
30.09.2020 08:02 12,3 C 11,7 C 11,1 C 100 % 1016,1 hPa 0,0 l/m 0 min 0 min 18 W/m 0,0 km/h (0 Bft) 96,30 %
30.09.2020 08:04 12,4 C 11,7 C 11,1 C 100 % 1016,1 hPa 0,0 l/m 0 min 0 min 19 W/m 3,2 km/h (1 Bft) 100,00 %
30.09.2020 08:06 12,4 C 11,7 C 11,1 C 100 % 1016,1 hPa 0,0 l/m 0 min 0 min 23 W/m 6,4 km/h (2 Bft) 97,30 %
30.09.2020 08:08 12,4 C 11,7 C 11,1 C 100 % 1016,1 hPa 0,0 l/m 0 min 0 min 25 W/m 0,0 km/h (0 Bft) 100,00 %
30.09.2020 08:10 12,4 C 11,7 C 11,1 C 100 % 1016,1 hPa 0,0 l/m 0 min 0 min 25 W/m 0,0 km/h (0 Bft) 100,00 %
30.09.2020 08:12 12,4 C 11,7 C 11,1 C 100 % 1016,1 hPa 0,0 l/m 0 min 0 min 26 W/m 12,9 km/h (3 Bft) 100,00 %
30.09.2020 08:14 12,4 C 11,7 C 11,1 C 100 % 1016,1 hPa 0,0 l/m 0 min 0 min 29 W/m 16,1 km/h (3 Bft) 97,87 %
30.09.2020 08:16 12,5 C 11,7 C 11,1 C 100 % 1016,0 hPa 0,0 l/m 0 min 0 min 30 W/m 6,4 km/h (2 Bft) 100,00 %
30.09.2020 08:18 12,5 C 11,7 C 11,1 C 100 % 1016,1 hPa 0,0 l/m 0 min 0 min 31 W/m 12,9 km/h (3 Bft) 100,00 %
30.09.2020 08:20 12,5 C 11,7 C 11,7 C 100 % 1016,0 hPa 0,0 l/m 0 min 0 min 31 W/m 6,4 km/h (2 Bft) 100,00 %
30.09.2020 08:22 12,6 C 11,7 C 11,7 C 100 % 1016,0 hPa 0,0 l/m 0 min 0 min 26 W/m 6,4 km/h (2 Bft) 100,00 %
30.09.2020 08:24 12,6 C 11,7 C 11,7 C 100 % 1016,1 hPa 0,0 l/m 0 min 0 min 26 W/m 0,0 km/h (0 Bft) 100,00 %
30.09.2020 08:26 12,6 C 11,7 C 11,7 C 100 % 1016,1 hPa 0,0 l/m 0 min 0 min 26 W/m 6,4 km/h (2 Bft) 100,00 %
30.09.2020 08:28 12,6 C 11,7 C 11,7 C 100 % 1016,1 hPa 0,0 l/m 0 min 0 min 26 W/m 6,4 km/h (2 Bft) 97,87 %
30.09.2020 08:30 12,6 C 11,7 C 11,7 C 100 % 1016,1 hPa 0,0 l/m 0 min 0 min 26 W/m 12,9 km/h (3 Bft) 100,00 %
30.09.2020 08:32 12,6 C 11,7 C 11,7 C 100 % 1016,1 hPa 0,0 l/m 0 min 0 min 26 W/m 0,0 km/h (0 Bft) 100,00 %
30.09.2020 08:34 12,6 C 11,7 C 11,7 C 100 % 1016,1 hPa 0,0 l/m 0 min 0 min 26 W/m 9,7 km/h (2 Bft) 100,00 %
30.09.2020 08:36 12,7 C 12,2 C 11,7 C 100 % 1016,1 hPa 0,0 l/m 0 min 0 min 26 W/m 3,2 km/h (1 Bft) 100,00 %
30.09.2020 08:38 12,7 C 12,2 C 11,7 C 100 % 1016,1 hPa 0,0 l/m 0 min 0 min 26 W/m 12,9 km/h (3 Bft) 100,00 %
30.09.2020 08:40 12,7 C 12,2 C 11,7 C 100 % 1016,1 hPa 0,0 l/m 0 min 2 min 26 W/m 3,2 km/h (1 Bft) 100,00 %
30.09.2020 08:42 12,7 C 12,2 C 11,7 C 100 % 1016,1 hPa 0,0 l/m 0 min 0 min 26 W/m 3,2 km/h (1 Bft) 100,00 %
30.09.2020 08:44 12,7 C 12,2 C 11,7 C 100 % 1016,2 hPa 0,0 l/m 0 min 0 min 27 W/m 3,2 km/h (1 Bft) 100,00 %
30.09.2020 08:46 12,7 C 12,2 C 11,7 C 100 % 1016,2 hPa 0,0 l/m 0 min 0 min 28 W/m 6,4 km/h (2 Bft) 100,00 %
30.09.2020 08:48 12,7 C 12,2 C 11,7 C 100 % 1016,2 hPa 0,0 l/m 0 min 0 min 28 W/m 6,4 km/h (2 Bft) 97,87 %
30.09.2020 08:50 12,7 C 12,2 C 11,7 C 100 % 1016,1 hPa 0,0 l/m 0 min 0 min 28 W/m 0,0 km/h (0 Bft) 97,87 %
30.09.2020 08:52 12,8 C 12,2 C 11,7 C 100 % 1016,2 hPa 0,0 l/m 0 min 0 min 28 W/m 0,0 km/h (0 Bft) 95,74 %
30.09.2020 08:54 12,8 C 12,2 C 11,7 C 100 % 1016,2 hPa 0,0 l/m 0 min 0 min 32 W/m 12,9 km/h (3 Bft) 97,87 %
30.09.2020 08:56 12,8 C 12,2 C 11,7 C 100 % 1016,2 hPa 0,0 l/m 0 min 0 min 33 W/m 0,0 km/h (0 Bft) 97,87 %
30.09.2020 08:58 12,8 C 12,2 C 11,7 C 100 % 1016,2 hPa 0,0 l/m 0 min 0 min 38 W/m 12,9 km/h (3 Bft) 100,00 %
30.09.2020 09:00 12,8 C 12,2 C 11,7 C 100 % 1016,1 hPa 0,0 l/m 0 min 0 min 42 W/m 6,4 km/h (2 Bft) 97,87 %
30.09.2020 09:02 12,8 C 12,2 C 11,7 C 100 % 1016,1 hPa 0,0 l/m 0 min 0 min 46 W/m 12,9 km/h (3 Bft) 95,74 %
30.09.2020 09:04 12,8 C 12,2 C 11,7 C 100 % 1016,1 hPa 0,0 l/m 0 min 0 min 45 W/m 6,4 km/h (2 Bft) 96,15 %
30.09.2020 09:06 12,8 C 12,2 C 11,7 C 100 % 1016,2 hPa 0,0 l/m 0 min 0 min 42 W/m 0,0 km/h (0 Bft) 97,87 %
30.09.2020 09:08 12,9 C 12,2 C 11,7 C 100 % 1016,1 hPa 0,0 l/m 0 min 0 min 42 W/m 0,0 km/h (0 Bft) 97,87 %
30.09.2020 09:10 12,9 C 12,2 C 11,7 C 100 % 1016,1 hPa 0,0 l/m 0 min 0 min 42 W/m 3,2 km/h (1 Bft) 95,74 %
30.09.2020 09:12 12,9 C 12,2 C 11,7 C 100 % 1016,1 hPa 0,0 l/m 0 min 0 min 42 W/m 0,0 km/h (0 Bft) 95,74 %
30.09.2020 09:14 12,9 C 12,2 C 11,7 C 100 % 1016,0 hPa 0,0 l/m 0 min 0 min 46 W/m 3,2 km/h (1 Bft) 97,83 %
30.09.2020 09:16 12,9 C 12,2 C 11,7 C 100 % 1016,0 hPa 0,0 l/m 0 min 0 min 51 W/m 12,9 km/h (3 Bft) 95,74 %
30.09.2020 09:18 12,9 C 12,2 C 11,7 C 100 % 1015,9 hPa 0,0 l/m 0 min 0 min 55 W/m 12,9 km/h (3 Bft) 97,87 %
30.09.2020 09:20 12,9 C 12,2 C 11,7 C 100 % 1015,9 hPa 0,0 l/m 0 min 0 min 55 W/m 16,1 km/h (3 Bft) 95,74 %
30.09.2020 09:22 12,9 C 12,2 C 11,7 C 100 % 1015,8 hPa 0,0 l/m 0 min 2 min 55 W/m 3,2 km/h (1 Bft) 91,49 %
30.09.2020 09:24 13,0 C 12,8 C 12,2 C 100 % 1015,8 hPa 0,0 l/m 0 min 0 min 58 W/m 6,4 km/h (2 Bft) 95,74 %
30.09.2020 09:26 13,0 C 12,8 C 12,2 C 100 % 1015,8 hPa 0,0 l/m 0 min 0 min 67 W/m 0,0 km/h (0 Bft) 95,65 %
30.09.2020 09:28 13,0 C 12,8 C 12,2 C 100 % 1015,9 hPa 0,0 l/m 0 min 0 min 70 W/m 19,3 km/h (3 Bft) 95,74 %
30.09.2020 09:30 13,1 C 12,8 C 12,2 C 100 % 1015,8 hPa 0,0 l/m 0 min 0 min 76 W/m 3,2 km/h (1 Bft) 95,74 %
30.09.2020 09:32 13,1 C 12,8 C 12,2 C 100 % 1015,9 hPa 0,0 l/m 0 min 0 min 77 W/m 6,4 km/h (2 Bft) 93,75 %
30.09.2020 09:34 13,1 C 12,8 C 12,2 C 100 % 1015,9 hPa 0,0 l/m 0 min 0 min 81 W/m 3,2 km/h (1 Bft) 93,62 %
30.09.2020 09:36 13,1 C 12,8 C 12,2 C 100 % 1015,9 hPa 0,0 l/m 0 min 0 min 103 W/m 0,0 km/h (0 Bft) 95,65 %
30.09.2020 09:38 13,1 C 13,3 C 12,2 C 100 % 1015,9 hPa 0,0 l/m 0 min 0 min 102 W/m 6,4 km/h (2 Bft) 95,74 %
30.09.2020 09:40 13,2 C 13,3 C 12,2 C 100 % 1015,9 hPa 0,0 l/m 0 min 0 min 90 W/m 0,0 km/h (0 Bft) 95,74 %
30.09.2020 09:42 13,2 C 13,3 C 12,2 C 100 % 1015,8 hPa 0,0 l/m 0 min 0 min 93 W/m 3,2 km/h (1 Bft) 95,74 %
30.09.2020 09:44 13,2 C 13,3 C 12,2 C 100 % 1015,8 hPa 0,0 l/m 0 min 0 min 95 W/m 6,4 km/h (2 Bft) 95,74 %
30.09.2020 09:46 13,2 C 13,3 C 12,2 C 100 % 1015,9 hPa 0,0 l/m 0 min 0 min 96 W/m 3,2 km/h (1 Bft) 93,62 %
30.09.2020 09:48 13,3 C 13,3 C 12,8 C 100 % 1015,8 hPa 0,0 l/m 0 min 0 min 99 W/m 3,2 km/h (1 Bft) 95,65 %
30.09.2020 09:50 13,3 C 13,3 C 12,8 C 100 % 1015,8 hPa 0,0 l/m 0 min 0 min 104 W/m 0,0 km/h (0 Bft) 95,74 %
30.09.2020 09:52 13,3 C 13,3 C 12,8 C 100 % 1015,8 hPa 0,0 l/m 0 min 0 min 111 W/m 3,2 km/h (1 Bft) 93,62 %
30.09.2020 09:54 13,4 C 13,9 C 12,8 C 100 % 1015,8 hPa 0,0 l/m 0 min 0 min 122 W/m 3,2 km/h (1 Bft) 97,87 %
30.09.2020 09:56 13,4 C 13,9 C 12,8 C 100 % 1015,8 hPa 0,0 l/m 0 min 0 min 131 W/m 0,0 km/h (0 Bft) 95,74 %
30.09.2020 09:58 13,4 C 13,9 C 12,8 C 100 % 1015,8 hPa 0,0 l/m 0 min 0 min 137 W/m 3,2 km/h (1 Bft) 97,87 %
30.09.2020 10:00 13,5 C 13,9 C 12,8 C 100 % 1015,8 hPa 0,0 l/m 0 min 0 min 144 W/m 6,4 km/h (2 Bft) 97,83 %
30.09.2020 10:02 13,6 C 13,9 C 12,8 C 100 % 1015,8 hPa 0,0 l/m 0 min 0 min 115 W/m 0,0 km/h (0 Bft) 97,87 %
30.09.2020 10:04 13,6 C 13,9 C 12,8 C 100 % 1015,8 hPa 0,0 l/m 0 min 0 min 115 W/m 6,4 km/h (2 Bft) 97,78 %
30.09.2020 10:06 13,6 C 14,4 C 12,8 C 100 % 1015,8 hPa 0,0 l/m 0 min 0 min 116 W/m 0,0 km/h (0 Bft) 100,00 %
30.09.2020 10:08 13,6 C 14,4 C 13,3 C 100 % 1015,8 hPa 0,0 l/m 0 min 0 min 152 W/m 3,2 km/h (1 Bft) 100,00 %
30.09.2020 10:10 13,7 C 15,6 C 13,3 C 100 % 1015,7 hPa 0,0 l/m 2 min 0 min 224 W/m 3,2 km/h (1 Bft) 100,00 %
30.09.2020 10:12 13,8 C 16,1 C 13,3 C 100 % 1015,7 hPa 0,0 l/m 2 min 0 min 304 W/m 3,2 km/h (1 Bft) 97,83 %
30.09.2020 10:14 13,8 C 16,7 C 13,9 C 100 % 1015,7 hPa 0,0 l/m 2 min 0 min 228 W/m 6,4 km/h (2 Bft) 97,87 %
30.09.2020 10:16 13,9 C 16,7 C 13,9 C 100 % 1015,7 hPa 0,0 l/m 2 min 0 min 210 W/m 3,2 km/h (1 Bft) 100,00 %
30.09.2020 10:18 14,0 C 16,7 C 13,9 C 100 % 1015,7 hPa 0,0 l/m 2 min 0 min 197 W/m 0,0 km/h (0 Bft) 100,00 %
30.09.2020 10:20 14,1 C 17,2 C 13,9 C 100 % 1015,7 hPa 0,0 l/m 2 min 0 min 269 W/m 6,4 km/h (2 Bft) 100,00 %
30.09.2020 10:22 14,3 C 17,8 C 13,9 C 100 % 1015,7 hPa 0,0 l/m 2 min 0 min 370 W/m 0,0 km/h (0 Bft) 97,87 %
30.09.2020 10:24 14,3 C 17,8 C 13,9 C 100 % 1015,7 hPa 0,0 l/m 2 min 0 min 349 W/m 0,0 km/h (0 Bft) 97,83 %
30.09.2020 10:26 14,3 C 18,3 C 13,9 C 100 % 1015,7 hPa 0,0 l/m 2 min 0 min 384 W/m 0,0 km/h (0 Bft) 100,00 %
30.09.2020 10:28 14,4 C 18,3 C 13,9 C 100 % 1015,7 hPa 0,0 l/m 2 min 0 min 384 W/m 12,9 km/h (3 Bft) 97,87 %
30.09.2020 10:30 14,5 C 17,8 C 13,9 C 100 % 1015,6 hPa 0,0 l/m 2 min 0 min 394 W/m 16,1 km/h (3 Bft) 97,87 %
30.09.2020 10:32 14,6 C 18,3 C 13,9 C 100 % 1015,6 hPa 0,0 l/m 2 min 0 min 389 W/m 16,1 km/h (3 Bft) 95,74 %
30.09.2020 10:34 14,6 C 18,3 C 13,9 C 100 % 1015,7 hPa 0,0 l/m 2 min 0 min 391 W/m 12,9 km/h (3 Bft) 97,87 %
30.09.2020 10:36 14,7 C 18,3 C 13,9 C 100 % 1015,7 hPa 0,0 l/m 2 min 0 min 409 W/m 12,9 km/h (3 Bft) 95,65 %
30.09.2020 10:38 14,7 C 18,3 C 13,9 C 100 % 1015,7 hPa 0,0 l/m 2 min 0 min 412 W/m 12,9 km/h (3 Bft) 95,74 %
30.09.2020 10:40 14,8 C 18,9 C 13,9 C 100 % 1015,8 hPa 0,0 l/m 2 min 0 min 413 W/m 9,7 km/h (2 Bft) 97,87 %
30.09.2020 10:42 14,8 C 19,4 C 13,9 C 100 % 1015,8 hPa 0,0 l/m 2 min 0 min 428 W/m 6,4 km/h (2 Bft) 97,87 %
30.09.2020 10:44 14,9 C 18,3 C 13,9 C 100 % 1015,7 hPa 0,0 l/m 2 min 0 min 375 W/m 16,1 km/h (3 Bft) 97,87 %
30.09.2020 10:46 14,9 C 17,8 C 13,9 C 100 % 1015,8 hPa 0,0 l/m 2 min 0 min 260 W/m 12,9 km/h (3 Bft) 97,83 %
30.09.2020 10:48 15,0 C 18,3 C 13,9 C 100 % 1015,8 hPa 0,0 l/m 2 min 0 min 329 W/m 12,9 km/h (3 Bft) 97,87 %
30.09.2020 10:50 15,0 C 18,3 C 14,4 C 100 % 1015,8 hPa 0,0 l/m 2 min 0 min 436 W/m 6,4 km/h (2 Bft) 95,74 %
30.09.2020 10:52 15,1 C 18,3 C 14,4 C 100 % 1015,7 hPa 0,0 l/m 2 min 0 min 276 W/m 12,9 km/h (3 Bft) 97,87 %
30.09.2020 10:54 15,1 C 17,2 C 14,4 C 100 % 1015,7 hPa 0,0 l/m 0 min 0 min 216 W/m 19,3 km/h (3 Bft) 97,87 %
30.09.2020 10:56 15,1 C 18,3 C 14,4 C 100 % 1015,7 hPa 0,0 l/m 2 min 0 min 410 W/m 12,9 km/h (3 Bft) 97,87 %
30.09.2020 10:58 15,1 C 18,3 C 14,4 C 100 % 1015,7 hPa 0,0 l/m 2 min 0 min 516 W/m 12,9 km/h (3 Bft) 97,87 %
30.09.2020 11:00 15,2 C 19,4 C 14,4 C 100 % 1015,7 hPa 0,0 l/m 2 min 0 min 252 W/m 12,9 km/h (3 Bft) 97,83 %
30.09.2020 11:02 15,2 C 20,6 C 14,4 C 100 % 1015,6 hPa 0,0 l/m 2 min 0 min 504 W/m 16,1 km/h (3 Bft) 93,62 %
30.09.2020 11:04 15,3 C 21,7 C 14,4 C 100 % 1015,6 hPa 0,0 l/m 2 min 0 min 503 W/m 6,4 km/h (2 Bft) 97,87 %
30.09.2020 11:06 15,4 C 21,7 C 14,4 C 100 % 1015,5 hPa 0,0 l/m 2 min 0 min 412 W/m 16,1 km/h (3 Bft) 100,00 %
30.09.2020 11:08 15,4 C 21,1 C 15,0 C 100 % 1015,4 hPa 0,0 l/m 2 min 0 min 484 W/m 19,3 km/h (3 Bft) 100,00 %
30.09.2020 11:10 15,5 C 21,1 C 15,0 C 100 % 1015,4 hPa 0,0 l/m 2 min 0 min 504 W/m 19,3 km/h (3 Bft) 100,00 %
30.09.2020 11:12 15,6 C 21,7 C 15,0 C 100 % 1015,4 hPa 0,0 l/m 2 min 0 min 520 W/m 12,9 km/h (3 Bft) 97,87 %
30.09.2020 11:14 15,7 C 21,1 C 15,0 C 100 % 1015,4 hPa 0,0 l/m 2 min 0 min 502 W/m 19,3 km/h (3 Bft) 100,00 %
30.09.2020 11:16 15,7 C 20,6 C 15,0 C 100 % 1015,4 hPa 0,0 l/m 2 min 0 min 423 W/m 16,1 km/h (3 Bft) 100,00 %
30.09.2020 11:18 15,7 C 20,6 C 15,0 C 100 % 1015,5 hPa 0,0 l/m 2 min 0 min 345 W/m 16,1 km/h (3 Bft) 100,00 %
30.09.2020 11:20 15,8 C 20,6 C 15,0 C 100 % 1015,5 hPa 0,0 l/m 2 min 0 min 415 W/m 22,5 km/h (4 Bft) 97,87 %
30.09.2020 11:22 15,8 C 20,0 C 15,0 C 100 % 1015,4 hPa 0,0 l/m 2 min 0 min 354 W/m 16,1 km/h (3 Bft) 100,00 %
30.09.2020 11:24 15,8 C 20,0 C 15,0 C 100 % 1015,4 hPa 0,0 l/m 2 min 0 min 353 W/m 19,3 km/h (3 Bft) 100,00 %
30.09.2020 11:26 15,9 C 20,0 C 15,0 C 100 % 1015,4 hPa 0,0 l/m 2 min 0 min 361 W/m 16,1 km/h (3 Bft) 100,00 %
30.09.2020 11:28 15,9 C 20,0 C 15,0 C 100 % 1015,5 hPa 0,0 l/m 2 min 0 min 290 W/m 12,9 km/h (3 Bft) 100,00 %
30.09.2020 11:30 16,0 C 20,6 C 15,0 C 100 % 1015,5 hPa 0,0 l/m 2 min 0 min 296 W/m 16,1 km/h (3 Bft) 100,00 %
30.09.2020 11:32 16,1 C 21,1 C 15,0 C 100 % 1015,5 hPa 0,0 l/m 2 min 0 min 385 W/m 16,1 km/h (3 Bft) 100,00 %
30.09.2020 11:34 16,1 C 20,6 C 15,0 C 100 % 1015,5 hPa 0,0 l/m 2 min 0 min 322 W/m 12,9 km/h (3 Bft) 100,00 %
30.09.2020 11:36 16,2 C 19,4 C 15,0 C 100 % 1015,5 hPa 0,0 l/m 0 min 0 min 250 W/m 19,3 km/h (3 Bft) 100,00 %
30.09.2020 11:38 16,2 C 18,9 C 15,0 C 100 % 1015,5 hPa 0,0 l/m 0 min 0 min 249 W/m 12,9 km/h (3 Bft) 97,87 %
30.09.2020 11:40 16,3 C 18,3 C 15,0 C 100 % 1015,4 hPa 0,0 l/m 0 min 0 min 183 W/m 12,9 km/h (3 Bft) 100,00 %
30.09.2020 11:42 16,3 C 17,8 C 15,0 C 100 % 1015,4 hPa 0,0 l/m 0 min 0 min 182 W/m 19,3 km/h (3 Bft) 97,83 %
30.09.2020 11:44 16,3 C 17,8 C 15,0 C 100 % 1015,4 hPa 0,0 l/m 0 min 0 min 173 W/m 12,9 km/h (3 Bft) 95,74 %
30.09.2020 11:46 16,3 C 17,2 C 15,0 C 100 % 1015,5 hPa 0,0 l/m 0 min 0 min 178 W/m 12,9 km/h (3 Bft) 97,87 %
30.09.2020 11:48 16,3 C 17,2 C 15,0 C 100 % 1015,5 hPa 0,0 l/m 0 min 0 min 208 W/m 9,7 km/h (2 Bft) 97,87 %
30.09.2020 11:50 16,3 C 17,2 C 15,0 C 99 % 1015,5 hPa 0,0 l/m 0 min 0 min 221 W/m 16,1 km/h (3 Bft) 97,87 %
30.09.2020 11:52 16,3 C 17,2 C 15,0 C 99 % 1015,4 hPa 0,0 l/m 0 min 0 min 238 W/m 16,1 km/h (3 Bft) 97,87 %
30.09.2020 11:54 16,3 C 17,8 C 15,0 C 99 % 1015,4 hPa 0,0 l/m 0 min 0 min 251 W/m 19,3 km/h (3 Bft) 97,83 %
30.09.2020 11:56 16,3 C 17,8 C 15,0 C 99 % 1015,4 hPa 0,0 l/m 0 min 0 min 254 W/m 16,1 km/h (3 Bft) 97,87 %
30.09.2020 11:58 16,3 C 17,2 C 15,0 C 98 % 1015,4 hPa 0,0 l/m 0 min 0 min 257 W/m 16,1 km/h (3 Bft) 95,74 %
30.09.2020 12:00 16,3 C 17,8 C 15,0 C 98 % 1015,4 hPa 0,0 l/m 0 min 0 min 254 W/m 12,9 km/h (3 Bft) 97,87 %
30.09.2020 12:02 16,3 C 17,8 C 15,6 C 98 % 1015,4 hPa 0,0 l/m 0 min 0 min 260 W/m 12,9 km/h (3 Bft) 97,87 %
30.09.2020 12:04 16,3 C 17,8 C 15,6 C 97 % 1015,4 hPa 0,0 l/m 0 min 0 min 264 W/m 12,9 km/h (3 Bft) 97,87 %
30.09.2020 12:08 16,4 C 17,8 C 15,6 C 97 % 1015,3 hPa 0,0 l/m 0 min 0 min 244 W/m 16,1 km/h (3 Bft) 97,85 %
30.09.2020 12:10 16,4 C 17,8 C 15,6 C 97 % 1015,3 hPa 0,0 l/m 0 min 0 min 225 W/m 12,9 km/h (3 Bft) 97,87 %
30.09.2020 12:12 16,4 C 17,2 C 15,6 C 96 % 1015,3 hPa 0,0 l/m 0 min 0 min 218 W/m 16,1 km/h (3 Bft) 97,87 %
30.09.2020 12:14 16,4 C 17,2 C 15,6 C 96 % 1015,3 hPa 0,0 l/m 0 min 0 min 212 W/m 12,9 km/h (3 Bft) 95,74 %
30.09.2020 12:16 16,5 C 17,8 C 15,6 C 96 % 1015,3 hPa 0,0 l/m 0 min 0 min 205 W/m 6,4 km/h (2 Bft) 97,83 %
30.09.2020 12:18 16,5 C 17,2 C 15,6 C 96 % 1015,3 hPa 0,0 l/m 0 min 0 min 196 W/m 12,9 km/h (3 Bft) 97,87 %
30.09.2020 12:20 16,6 C 17,2 C 15,6 C 96 % 1015,2 hPa 0,0 l/m 0 min 0 min 194 W/m 19,3 km/h (3 Bft) 97,87 %
30.09.2020 12:22 16,6 C 16,7 C 15,0 C 95 % 1015,2 hPa 0,0 l/m 0 min 0 min 191 W/m 12,9 km/h (3 Bft) 97,87 %
30.09.2020 12:24 16,6 C 16,7 C 15,0 C 95 % 1015,2 hPa 0,0 l/m 0 min 0 min 198 W/m 12,9 km/h (3 Bft) 100,00 %
30.09.2020 12:26 16,6 C 16,7 C 15,0 C 95 % 1015,2 hPa 0,0 l/m 0 min 0 min 209 W/m 12,9 km/h (3 Bft) 100,00 %
30.09.2020 12:28 16,6 C 16,7 C 15,0 C 95 % 1015,2 hPa 0,0 l/m 0 min 0 min 222 W/m 12,9 km/h (3 Bft) 95,65 %
30.09.2020 12:30 16,7 C 16,7 C 15,0 C 95 % 1015,2 hPa 0,0 l/m 0 min 0 min 231 W/m 16,1 km/h (3 Bft) 100,00 %
30.09.2020 12:32 16,7 C 17,2 C 15,6 C 94 % 1015,2 hPa 0,0 l/m 0 min 0 min 244 W/m 12,9 km/h (3 Bft) 100,00 %
30.09.2020 12:34 16,7 C 17,8 C 15,6 C 95 % 1015,1 hPa 0,0 l/m 0 min 0 min 260 W/m 12,9 km/h (3 Bft) 97,87 %
30.09.2020 12:36 16,7 C 18,3 C 15,6 C 95 % 1015,1 hPa 0,0 l/m 0 min 0 min 269 W/m 6,4 km/h (2 Bft) 95,74 %
30.09.2020 12:38 16,8 C 18,9 C 15,6 C 95 % 1015,1 hPa 0,0 l/m 2 min 0 min 285 W/m 12,9 km/h (3 Bft) 100,00 %
30.09.2020 12:40 16,8 C 18,9 C 16,1 C 94 % 1015,1 hPa 0,0 l/m 2 min 0 min 302 W/m 6,4 km/h (2 Bft) 97,83 %
30.09.2020 12:42 16,8 C 19,4 C 16,1 C 94 % 1015,1 hPa 0,0 l/m 2 min 0 min 319 W/m 12,9 km/h (3 Bft) 95,74 %
30.09.2020 12:44 16,9 C 19,4 C 16,1 C 94 % 1015,0 hPa 0,0 l/m 2 min 0 min 342 W/m 12,9 km/h (3 Bft) 95,74 %
30.09.2020 12:46 16,9 C 20,0 C 16,1 C 94 % 1015,0 hPa 0,0 l/m 2 min 0 min 368 W/m 6,4 km/h (2 Bft) 95,74 %
30.09.2020 12:48 17,0 C 20,0 C 16,1 C 94 % 1015,0 hPa 0,0 l/m 2 min 0 min 324 W/m 6,4 km/h (2 Bft) 97,87 %
30.09.2020 12:50 17,1 C 20,0 C 16,7 C 94 % 1015,0 hPa 0,0 l/m 2 min 0 min 321 W/m 6,4 km/h (2 Bft) 97,87 %
30.09.2020 12:52 17,1 C 19,4 C 16,7 C 94 % 1015,0 hPa 0,0 l/m 2 min 0 min 297 W/m 16,1 km/h (3 Bft) 97,83 %
30.09.2020 12:54 17,1 C 18,9 C 16,1 C 94 % 1015,0 hPa 0,0 l/m 0 min 0 min 276 W/m 19,3 km/h (3 Bft) 95,74 %
30.09.2020 12:56 17,2 C 18,9 C 16,1 C 94 % 1014,9 hPa 0,0 l/m 2 min 0 min 287 W/m 16,1 km/h (3 Bft) 97,87 %
30.09.2020 12:58 17,2 C 19,4 C 16,1 C 93 % 1014,8 hPa 0,0 l/m 2 min 0 min 304 W/m 12,9 km/h (3 Bft) 93,62 %
30.09.2020 13:00 17,3 C 19,4 C 16,1 C 93 % 1014,8 hPa 0,0 l/m 2 min 0 min 299 W/m 16,1 km/h (3 Bft) 95,74 %
30.09.2020 13:02 17,3 C 19,4 C 16,1 C 93 % 1014,8 hPa 0,0 l/m 2 min 0 min 304 W/m 16,1 km/h (3 Bft) 95,74 %
30.09.2020 13:04 17,3 C 19,4 C 16,7 C 93 % 1014,7 hPa 0,0 l/m 2 min 0 min 322 W/m 16,1 km/h (3 Bft) 95,65 %
30.09.2020 13:06 17,4 C 19,4 C 16,7 C 92 % 1014,7 hPa 0,0 l/m 2 min 0 min 321 W/m 16,1 km/h (3 Bft) 95,74 %
30.09.2020 13:08 17,5 C 20,6 C 16,7 C 92 % 1014,6 hPa 0,0 l/m 2 min 0 min 354 W/m 12,9 km/h (3 Bft) 95,74 %
30.09.2020 13:10 17,6 C 20,6 C 16,7 C 92 % 1014,7 hPa 0,0 l/m 2 min 0 min 424 W/m 12,9 km/h (3 Bft) 95,74 %
30.09.2020 13:12 17,6 C 22,2 C 16,7 C 92 % 1014,7 hPa 0,0 l/m 2 min 0 min 524 W/m 12,9 km/h (3 Bft) 93,62 %
30.09.2020 13:14 17,7 C 22,8 C 17,2 C 92 % 1014,6 hPa 0,0 l/m 2 min 0 min 713 W/m 19,3 km/h (3 Bft) 93,62 %
30.09.2020 13:16 17,8 C 22,2 C 16,7 C 91 % 1014,6 hPa 0,0 l/m 2 min 0 min 429 W/m 16,1 km/h (3 Bft) 95,65 %
30.09.2020 13:18 17,9 C 21,7 C 16,7 C 91 % 1014,6 hPa 0,0 l/m 2 min 0 min 389 W/m 12,9 km/h (3 Bft) 95,74 %
30.09.2020 13:20 17,9 C 20,6 C 16,7 C 90 % 1014,6 hPa 0,0 l/m 0 min 0 min 276 W/m 19,3 km/h (3 Bft) 93,62 %
30.09.2020 13:22 18,0 C 20,0 C 16,7 C 90 % 1014,6 hPa 0,0 l/m 0 min 0 min 276 W/m 12,9 km/h (3 Bft) 93,62 %
30.09.2020 13:24 18,1 C 20,0 C 16,7 C 90 % 1014,6 hPa 0,0 l/m 0 min 0 min 261 W/m 12,9 km/h (3 Bft) 97,87 %
30.09.2020 13:26 18,1 C 20,0 C 16,7 C 90 % 1014,6 hPa 0,0 l/m 0 min 0 min 287 W/m 16,1 km/h (3 Bft) 97,83 %
30.09.2020 13:28 18,2 C 20,0 C 16,7 C 89 % 1014,5 hPa 0,0 l/m 0 min 0 min 266 W/m 16,1 km/h (3 Bft) 95,74 %
30.09.2020 13:30 18,2 C 20,0 C 16,7 C 89 % 1014,5 hPa 0,0 l/m 0 min 0 min 275 W/m 16,1 km/h (3 Bft) 97,87 %
30.09.2020 13:32 18,2 C 20,0 C 16,7 C 89 % 1014,5 hPa 0,0 l/m 2 min 0 min 302 W/m 16,1 km/h (3 Bft) 97,87 %
30.09.2020 13:34 18,3 C 20,0 C 16,7 C 89 % 1014,5 hPa 0,0 l/m 2 min 0 min 322 W/m 22,5 km/h (4 Bft) 97,87 %
30.09.2020 13:36 18,3 C 20,0 C 16,7 C 88 % 1014,5 hPa 0,0 l/m 2 min 0 min 365 W/m 22,5 km/h (4 Bft) 97,87 %
30.09.2020 13:38 18,3 C 20,6 C 16,7 C 88 % 1014,5 hPa 0,0 l/m 2 min 0 min 325 W/m 12,9 km/h (3 Bft) 97,83 %
30.09.2020 13:40 18,4 C 20,6 C 16,7 C 88 % 1014,5 hPa 0,0 l/m 2 min 0 min 364 W/m 19,3 km/h (3 Bft) 97,87 %
30.09.2020 13:42 18,4 C 20,6 C 17,2 C 88 % 1014,5 hPa 0,0 l/m 2 min 0 min 336 W/m 16,1 km/h (3 Bft) 97,87 %
30.09.2020 13:44 18,4 C 20,0 C 16,7 C 88 % 1014,5 hPa 0,0 l/m 2 min 0 min 326 W/m 22,5 km/h (4 Bft) 95,74 %
30.09.2020 13:46 18,4 C 20,6 C 17,2 C 87 % 1014,5 hPa 0,0 l/m 2 min 0 min 369 W/m 22,5 km/h (4 Bft) 97,87 %
30.09.2020 13:48 18,5 C 21,1 C 17,2 C 87 % 1014,5 hPa 0,0 l/m 2 min 0 min 459 W/m 16,1 km/h (3 Bft) 97,87 %
30.09.2020 13:50 18,6 C 21,1 C 17,2 C 87 % 1014,4 hPa 0,0 l/m 2 min 0 min 435 W/m 19,3 km/h (3 Bft) 97,83 %
30.09.2020 13:52 18,6 C 21,1 C 17,2 C 87 % 1014,4 hPa 0,0 l/m 2 min 0 min 371 W/m 19,3 km/h (3 Bft) 97,87 %
30.09.2020 13:54 18,6 C 20,6 C 17,2 C 87 % 1014,4 hPa 0,0 l/m 2 min 0 min 367 W/m 19,3 km/h (3 Bft) 97,87 %
30.09.2020 13:56 18,6 C 20,6 C 17,2 C 87 % 1014,3 hPa 0,0 l/m 2 min 0 min 347 W/m 19,3 km/h (3 Bft) 97,87 %
30.09.2020 13:58 18,7 C 20,0 C 17,2 C 86 % 1014,3 hPa 0,0 l/m 2 min 0 min 324 W/m 22,5 km/h (4 Bft) 97,87 %
30.09.2020 14:00 18,7 C 20,6 C 17,2 C 86 % 1014,3 hPa 0,0 l/m 2 min 0 min 340 W/m 12,9 km/h (3 Bft) 95,74 %
30.09.2020 14:02 18,7 C 20,6 C 17,2 C 86 % 1014,3 hPa 0,0 l/m 2 min 0 min 334 W/m 22,5 km/h (4 Bft) 97,83 %
30.09.2020 14:04 18,7 C 20,6 C 17,2 C 86 % 1014,2 hPa 0,0 l/m 2 min 0 min 364 W/m 16,1 km/h (3 Bft) 100,00 %
30.09.2020 14:06 18,8 C 20,6 C 17,2 C 86 % 1014,2 hPa 0,0 l/m 2 min 0 min 342 W/m 16,1 km/h (3 Bft) 97,87 %
30.09.2020 14:08 18,8 C 20,6 C 17,2 C 86 % 1014,2 hPa 0,0 l/m 2 min 0 min 322 W/m 12,9 km/h (3 Bft) 97,87 %
30.09.2020 14:10 18,8 C 20,6 C 17,2 C 86 % 1014,2 hPa 0,0 l/m 2 min 0 min 301 W/m 16,1 km/h (3 Bft) 97,87 %
30.09.2020 14:12 18,8 C 20,0 C 17,2 C 86 % 1014,1 hPa 0,0 l/m 0 min 0 min 278 W/m 25,7 km/h (4 Bft) 97,87 %
30.09.2020 14:14 18,9 C 20,0 C 17,2 C 86 % 1014,1 hPa 0,0 l/m 0 min 0 min 268 W/m 12,9 km/h (3 Bft) 97,83 %
30.09.2020 14:16 18,9 C 20,0 C 17,2 C 86 % 1014,1 hPa 0,0 l/m 0 min 0 min 267 W/m 19,3 km/h (3 Bft) 95,74 %
30.09.2020 14:18 18,9 C 19,4 C 17,2 C 86 % 1014,0 hPa 0,0 l/m 2 min 0 min 279 W/m 19,3 km/h (3 Bft) 97,87 %
30.09.2020 14:20 18,9 C 20,0 C 17,2 C 86 % 1014,0 hPa 0,0 l/m 2 min 0 min 283 W/m 12,9 km/h (3 Bft) 97,87 %
30.09.2020 14:22 18,9 C 20,0 C 17,2 C 85 % 1014,0 hPa 0,0 l/m 2 min 0 min 286 W/m 12,9 km/h (3 Bft) 95,74 %
30.09.2020 14:24 18,9 C 20,0 C 17,2 C 85 % 1014,0 hPa 0,0 l/m 2 min 0 min 287 W/m 16,1 km/h (3 Bft) 97,87 %
30.09.2020 14:26 18,9 C 20,6 C 17,2 C 85 % 1014,0 hPa 0,0 l/m 2 min 0 min 285 W/m 16,1 km/h (3 Bft) 95,65 %
30.09.2020 14:28 18,9 C 20,6 C 17,2 C 85 % 1013,9 hPa 0,0 l/m 2 min 0 min 310 W/m 9,7 km/h (2 Bft) 97,87 %
30.09.2020 14:30 18,9 C 20,6 C 17,2 C 85 % 1013,9 hPa 0,0 l/m 2 min 0 min 316 W/m 12,9 km/h (3 Bft) 97,87 %
30.09.2020 14:32 19,0 C 20,0 C 17,2 C 85 % 1013,8 hPa 0,0 l/m 2 min 0 min 306 W/m 22,5 km/h (4 Bft) 93,62 %
30.09.2020 14:34 19,0 C 20,0 C 17,2 C 84 % 1013,8 hPa 0,0 l/m 2 min 0 min 291 W/m 19,3 km/h (3 Bft) 95,74 %
30.09.2020 14:36 19,0 C 20,6 C 17,2 C 84 % 1013,7 hPa 0,0 l/m 2 min 0 min 283 W/m 12,9 km/h (3 Bft) 95,74 %
30.09.2020 14:38 19,1 C 20,6 C 17,2 C 84 % 1013,7 hPa 0,0 l/m 2 min 0 min 336 W/m 16,1 km/h (3 Bft) 95,65 %
30.09.2020 14:40 19,1 C 21,1 C 17,8 C 84 % 1013,6 hPa 0,0 l/m 2 min 0 min 332 W/m 16,1 km/h (3 Bft) 97,87 %
30.09.2020 14:42 19,1 C 20,6 C 17,2 C 84 % 1013,6 hPa 0,0 l/m 2 min 0 min 274 W/m 12,9 km/h (3 Bft) 97,87 %
30.09.2020 14:44 19,1 C 20,6 C 17,2 C 84 % 1013,6 hPa 0,0 l/m 0 min 0 min 258 W/m 16,1 km/h (3 Bft) 97,87 %
30.09.2020 14:46 19,1 C 20,6 C 17,2 C 84 % 1013,6 hPa 0,0 l/m 2 min 0 min 275 W/m 16,1 km/h (3 Bft) 100,00 %
30.09.2020 14:48 19,2 C 21,1 C 17,2 C 84 % 1013,5 hPa 0,0 l/m 2 min 0 min 283 W/m 12,9 km/h (3 Bft) 100,00 %
30.09.2020 14:50 19,2 C 21,1 C 17,2 C 84 % 1013,4 hPa 0,0 l/m 2 min 0 min 296 W/m 12,9 km/h (3 Bft) 100,00 %
30.09.2020 14:52 19,2 C 20,6 C 17,2 C 84 % 1013,4 hPa 0,0 l/m 2 min 0 min 280 W/m 12,9 km/h (3 Bft) 97,87 %
30.09.2020 14:54 19,3 C 20,6 C 17,8 C 84 % 1013,4 hPa 0,0 l/m 0 min 0 min 258 W/m 19,3 km/h (3 Bft) 100,00 %
30.09.2020 14:56 19,3 C 20,6 C 17,2 C 84 % 1013,4 hPa 0,0 l/m 0 min 0 min 223 W/m 12,9 km/h (3 Bft) 97,87 %
30.09.2020 14:58 19,3 C 19,4 C 17,2 C 83 % 1013,3 hPa 0,0 l/m 0 min 0 min 219 W/m 19,3 km/h (3 Bft) 100,00 %
30.09.2020 15:00 19,3 C 20,0 C 17,2 C 82 % 1013,3 hPa 0,0 l/m 0 min 0 min 225 W/m 16,1 km/h (3 Bft) 97,83 %
30.09.2020 15:02 19,3 C 20,0 C 17,2 C 83 % 1013,3 hPa 0,0 l/m 0 min 0 min 227 W/m 16,1 km/h (3 Bft) 100,00 %
30.09.2020 15:04 19,3 C 20,0 C 17,8 C 83 % 1013,4 hPa 0,0 l/m 0 min 0 min 241 W/m 16,1 km/h (3 Bft) 97,87 %
30.09.2020 15:06 19,4 C 20,0 C 17,8 C 83 % 1013,3 hPa 0,0 l/m 0 min 0 min 232 W/m 12,9 km/h (3 Bft) 97,87 %
30.09.2020 15:08 19,4 C 20,0 C 17,8 C 83 % 1013,3 hPa 0,0 l/m 0 min 0 min 218 W/m 16,1 km/h (3 Bft) 97,87 %
30.09.2020 15:10 19,4 C 20,0 C 17,2 C 83 % 1013,4 hPa 0,0 l/m 0 min 0 min 207 W/m 12,9 km/h (3 Bft) 95,74 %
30.09.2020 15:12 19,4 C 20,0 C 17,2 C 83 % 1013,3 hPa 0,0 l/m 0 min 0 min 198 W/m 16,1 km/h (3 Bft) 97,83 %
30.09.2020 15:14 19,4 C 20,0 C 17,2 C 83 % 1013,3 hPa 0,0 l/m 0 min 0 min 201 W/m 19,3 km/h (3 Bft) 97,87 %
30.09.2020 15:16 19,4 C 20,0 C 17,2 C 83 % 1013,3 hPa 0,0 l/m 0 min 0 min 200 W/m 9,7 km/h (2 Bft) 97,87 %
30.09.2020 15:18 19,4 C 20,0 C 17,2 C 83 % 1013,3 hPa 0,0 l/m 0 min 0 min 191 W/m 16,1 km/h (3 Bft) 97,87 %
30.09.2020 15:20 19,4 C 19,4 C 17,2 C 83 % 1013,3 hPa 0,0 l/m 0 min 0 min 172 W/m 19,3 km/h (3 Bft) 97,87 %
30.09.2020 15:22 19,4 C 19,4 C 17,2 C 82 % 1013,3 hPa 0,0 l/m 0 min 0 min 167 W/m 16,1 km/h (3 Bft) 97,87 %
30.09.2020 15:24 19,4 C 19,4 C 17,8 C 82 % 1013,3 hPa 0,0 l/m 0 min 0 min 172 W/m 12,9 km/h (3 Bft) 97,83 %
30.09.2020 15:26 19,4 C 19,4 C 17,8 C 82 % 1013,2 hPa 0,0 l/m 0 min 0 min 173 W/m 6,4 km/h (2 Bft) 97,87 %
30.09.2020 15:28 19,4 C 20,0 C 17,8 C 83 % 1013,2 hPa 0,0 l/m 0 min 0 min 150 W/m 6,4 km/h (2 Bft) 97,87 %
30.09.2020 15:30 19,4 C 20,0 C 17,8 C 83 % 1013,2 hPa 0,0 l/m 0 min 0 min 137 W/m 6,4 km/h (2 Bft) 97,87 %
30.09.2020 15:32 19,4 C 20,0 C 17,8 C 83 % 1013,2 hPa 0,0 l/m 0 min 0 min 134 W/m 6,4 km/h (2 Bft) 97,87 %
30.09.2020 15:34 19,4 C 20,0 C 17,8 C 83 % 1013,1 hPa 0,0 l/m 0 min 0 min 156 W/m 6,4 km/h (2 Bft) 97,83 %
30.09.2020 15:36 19,4 C 20,0 C 17,8 C 83 % 1013,0 hPa 0,0 l/m 0 min 0 min 178 W/m 12,9 km/h (3 Bft) 97,87 %
30.09.2020 15:38 19,4 C 20,0 C 17,8 C 83 % 1013,0 hPa 0,0 l/m 0 min 0 min 168 W/m 12,9 km/h (3 Bft) 97,87 %
30.09.2020 15:40 19,4 C 20,0 C 17,8 C 83 % 1012,9 hPa 0,0 l/m 0 min 0 min 169 W/m 12,9 km/h (3 Bft) 97,87 %
30.09.2020 15:42 19,5 C 20,0 C 17,8 C 83 % 1012,9 hPa 0,0 l/m 0 min 0 min 181 W/m 12,9 km/h (3 Bft) 97,87 %
30.09.2020 15:44 19,5 C 20,0 C 17,8 C 83 % 1012,9 hPa 0,0 l/m 0 min 0 min 164 W/m 16,1 km/h (3 Bft) 97,87 %
30.09.2020 15:46 19,5 C 19,4 C 17,8 C 83 % 1012,9 hPa 0,0 l/m 0 min 0 min 153 W/m 12,9 km/h (3 Bft) 100,00 %
30.09.2020 15:48 19,5 C 19,4 C 17,8 C 83 % 1012,9 hPa 0,0 l/m 0 min 0 min 140 W/m 16,1 km/h (3 Bft) 100,00 %
30.09.2020 15:50 19,5 C 19,4 C 17,8 C 83 % 1012,8 hPa 0,0 l/m 0 min 0 min 123 W/m 16,1 km/h (3 Bft) 100,00 %
30.09.2020 15:52 19,5 C 18,9 C 17,2 C 82 % 1012,8 hPa 0,0 l/m 0 min 0 min 101 W/m 12,9 km/h (3 Bft) 97,87 %
30.09.2020 15:54 19,5 C 18,9 C 17,2 C 82 % 1012,8 hPa 0,0 l/m 0 min 0 min 83 W/m 12,9 km/h (3 Bft) 100,00 %
30.09.2020 15:56 19,5 C 18,9 C 17,2 C 82 % 1012,8 hPa 0,0 l/m 0 min 0 min 70 W/m 6,4 km/h (2 Bft) 100,00 %
30.09.2020 15:58 19,5 C 18,9 C 17,2 C 82 % 1012,8 hPa 0,0 l/m 0 min 0 min 61 W/m 12,9 km/h (3 Bft) 100,00 %
30.09.2020 16:00 19,4 C 18,9 C 17,2 C 82 % 1012,8 hPa 0,0 l/m 0 min 0 min 58 W/m 12,9 km/h (3 Bft) 100,00 %
30.09.2020 16:02 19,4 C 18,9 C 17,2 C 83 % 1012,8 hPa 0,0 l/m 0 min 0 min 62 W/m 12,9 km/h (3 Bft) 95,74 %
30.09.2020 16:04 19,4 C 18,3 C 17,2 C 83 % 1012,7 hPa 0,0 l/m 0 min 0 min 62 W/m 12,9 km/h (3 Bft) 100,00 %
30.09.2020 16:06 19,4 C 18,3 C 17,2 C 83 % 1012,7 hPa 0,0 l/m 0 min 0 min 57 W/m 6,4 km/h (2 Bft) 100,00 %
30.09.2020 16:08 19,4 C 18,3 C 17,2 C 83 % 1012,7 hPa 0,0 l/m 0 min 0 min 59 W/m 6,4 km/h (2 Bft) 100,00 %
30.09.2020 16:10 19,4 C 18,3 C 17,2 C 83 % 1012,7 hPa 0,0 l/m 0 min 0 min 69 W/m 12,9 km/h (3 Bft) 100,00 %
30.09.2020 16:12 19,4 C 18,9 C 17,2 C 83 % 1012,6 hPa 0,0 l/m 0 min 0 min 79 W/m 16,1 km/h (3 Bft) 100,00 %
30.09.2020 16:14 19,3 C 18,3 C 17,2 C 83 % 1012,6 hPa 0,0 l/m 0 min 0 min 86 W/m 12,9 km/h (3 Bft) 100,00 %
30.09.2020 16:16 19,3 C 18,9 C 17,2 C 83 % 1012,6 hPa 0,0 l/m 0 min 0 min 81 W/m 3,2 km/h (1 Bft) 97,83 %
30.09.2020 16:18 19,3 C 18,9 C 17,2 C 83 % 1012,6 hPa 0,0 l/m 0 min 0 min 84 W/m 6,4 km/h (2 Bft) 100,00 %
30.09.2020 16:20 19,3 C 18,9 C 17,2 C 83 % 1012,6 hPa 0,0 l/m 0 min 0 min 86 W/m 6,4 km/h (2 Bft) 100,00 %
30.09.2020 16:22 19,3 C 18,9 C 17,2 C 83 % 1012,6 hPa 0,0 l/m 0 min 0 min 59 W/m 3,2 km/h (1 Bft) 100,00 %
30.09.2020 16:24 19,3 C 18,9 C 17,2 C 84 % 1012,5 hPa 0,0 l/m 0 min 0 min 34 W/m 3,2 km/h (1 Bft) 100,00 %
30.09.2020 16:26 19,3 C 18,3 C 16,7 C 84 % 1012,5 hPa 0,0 l/m 0 min 0 min 25 W/m 6,4 km/h (2 Bft) 97,83 %
30.09.2020 16:28 19,3 C 18,3 C 16,7 C 84 % 1012,5 hPa 0,0 l/m 0 min 0 min 23 W/m 3,2 km/h (1 Bft) 100,00 %
30.09.2020 16:30 19,3 C 18,3 C 16,7 C 84 % 1012,5 hPa 0,0 l/m 0 min 0 min 24 W/m 3,2 km/h (1 Bft) 100,00 %
30.09.2020 16:32 19,3 C 17,8 C 16,7 C 84 % 1012,4 hPa 0,0 l/m 0 min 2 min 22 W/m 6,4 km/h (2 Bft) 100,00 %
30.09.2020 16:34 19,2 C 16,1 C 16,7 C 85 % 1012,5 hPa 0,2 l/m 0 min 2 min 17 W/m 6,4 km/h (2 Bft) 95,74 %
30.09.2020 16:36 19,2 C 15,6 C 16,1 C 85 % 1012,5 hPa 0,0 l/m 0 min 2 min 14 W/m 6,4 km/h (2 Bft) 95,74 %
30.09.2020 16:38 19,2 C 15,6 C 15,6 C 86 % 1012,5 hPa 0,8 l/m 0 min 2 min 15 W/m 6,4 km/h (2 Bft) 93,48 %
30.09.2020 16:40 19,2 C 15,6 C 15,6 C 87 % 1012,5 hPa 1,0 l/m 0 min 2 min 16 W/m 6,4 km/h (2 Bft) 95,74 %
30.09.2020 16:42 19,2 C 15,6 C 15,0 C 87 % 1012,4 hPa 0,6 l/m 0 min 2 min 16 W/m 6,4 km/h (2 Bft) 95,74 %
30.09.2020 16:44 19,1 C 15,6 C 15,0 C 87 % 1012,5 hPa 0,2 l/m 0 min 2 min 13 W/m 3,2 km/h (1 Bft) 93,62 %
30.09.2020 16:46 19,1 C 15,6 C 15,0 C 87 % 1012,5 hPa 0,2 l/m 0 min 2 min 11 W/m 0,0 km/h (0 Bft) 93,62 %
30.09.2020 16:48 19,0 C 15,6 C 15,0 C 88 % 1012,5 hPa 0,2 l/m 0 min 2 min 12 W/m 3,2 km/h (1 Bft) 95,74 %
30.09.2020 16:50 18,9 C 15,6 C 15,0 C 88 % 1012,5 hPa 0,2 l/m 0 min 2 min 15 W/m 0,0 km/h (0 Bft) 93,48 %
30.09.2020 16:52 18,9 C 15,6 C 15,0 C 88 % 1012,5 hPa 0,2 l/m 0 min 2 min 16 W/m 0,0 km/h (0 Bft) 93,75 %
30.09.2020 16:54 18,8 C 15,6 C 15,0 C 88 % 1012,6 hPa 0,2 l/m 0 min 2 min 14 W/m 0,0 km/h (0 Bft) 93,62 %
30.09.2020 16:56 18,8 C 15,6 C 15,0 C 88 % 1012,6 hPa 0,2 l/m 0 min 2 min 16 W/m 0,0 km/h (0 Bft) 95,74 %
30.09.2020 16:58 18,7 C 15,6 C 15,0 C 89 % 1012,5 hPa 0,8 l/m 0 min 2 min 20 W/m 0,0 km/h (0 Bft) 95,74 %
30.09.2020 17:00 18,6 C 15,6 C 15,0 C 89 % 1012,5 hPa 0,8 l/m 0 min 2 min 26 W/m 0,0 km/h (0 Bft) 95,65 %
30.09.2020 17:02 18,5 C 15,6 C 15,0 C 90 % 1012,4 hPa 0,4 l/m 0 min 2 min 33 W/m 0,0 km/h (0 Bft) 93,62 %
30.09.2020 17:04 18,4 C 15,6 C 15,0 C 90 % 1012,4 hPa 0,8 l/m 0 min 2 min 37 W/m 0,0 km/h (0 Bft) 95,74 %
30.09.2020 17:06 18,3 C 15,6 C 15,0 C 90 % 1012,4 hPa 1,0 l/m 0 min 2 min 40 W/m 0,0 km/h (0 Bft) 95,74 %
30.09.2020 17:08 18,3 C 15,6 C 15,0 C 91 % 1012,4 hPa 0,6 l/m 0 min 2 min 47 W/m 0,0 km/h (0 Bft) 93,62 %
30.09.2020 17:10 18,2 C 15,6 C 15,0 C 91 % 1012,4 hPa 0,4 l/m 0 min 2 min 78 W/m 0,0 km/h (0 Bft) 95,74 %
30.09.2020 17:12 18,2 C 16,1 C 15,0 C 91 % 1012,3 hPa 0,2 l/m 0 min 2 min 112 W/m 0,0 km/h (0 Bft) 95,65 %
30.09.2020 17:14 18,1 C 16,1 C 15,6 C 92 % 1012,3 hPa 0,0 l/m 0 min 0 min 140 W/m 0,0 km/h (0 Bft) 95,00 %
30.09.2020 17:16 18,1 C 16,1 C 15,6 C 92 % 1012,3 hPa 0,0 l/m 2 min 0 min 157 W/m 0,0 km/h (0 Bft) 95,74 %
30.09.2020 17:18 18,1 C 16,1 C 15,6 C 92 % 1012,3 hPa 0,0 l/m 2 min 0 min 175 W/m 0,0 km/h (0 Bft) 95,74 %
30.09.2020 17:20 18,0 C 16,1 C 15,6 C 92 % 1012,3 hPa 0,0 l/m 2 min 0 min 178 W/m 0,0 km/h (0 Bft) 95,74 %
30.09.2020 17:22 18,0 C 16,7 C 16,1 C 93 % 1012,3 hPa 0,0 l/m 2 min 0 min 164 W/m 0,0 km/h (0 Bft) 97,83 %
30.09.2020 17:24 18,0 C 16,7 C 16,1 C 93 % 1012,3 hPa 0,0 l/m 2 min 0 min 141 W/m 0,0 km/h (0 Bft) 95,74 %
30.09.2020 17:26 18,0 C 16,7 C 15,6 C 93 % 1012,2 hPa 0,0 l/m 0 min 0 min 125 W/m 0,0 km/h (0 Bft) 100,00 %
30.09.2020 17:28 18,0 C 16,7 C 15,6 C 93 % 1012,2 hPa 0,0 l/m 0 min 0 min 124 W/m 0,0 km/h (0 Bft) 100,00 %
30.09.2020 17:30 17,9 C 16,7 C 15,6 C 94 % 1012,2 hPa 0,0 l/m 0 min 0 min 109 W/m 0,0 km/h (0 Bft) 100,00 %
30.09.2020 17:32 17,9 C 16,7 C 15,6 C 94 % 1012,2 hPa 0,0 l/m 0 min 0 min 93 W/m 0,0 km/h (0 Bft) 97,83 %
30.09.2020 17:34 17,9 C 16,7 C 15,6 C 94 % 1012,1 hPa 0,0 l/m 0 min 0 min 87 W/m 0,0 km/h (0 Bft) 100,00 %
30.09.2020 17:36 17,9 C 16,7 C 15,6 C 94 % 1012,1 hPa 0,0 l/m 0 min 0 min 74 W/m 0,0 km/h (0 Bft) 100,00 %
30.09.2020 17:38 17,9 C 16,7 C 15,6 C 94 % 1012,1 hPa 0,0 l/m 0 min 0 min 63 W/m 0,0 km/h (0 Bft) 100,00 %
30.09.2020 17:40 17,9 C 16,7 C 15,6 C 94 % 1012,1 hPa 0,0 l/m 0 min 0 min 58 W/m 0,0 km/h (0 Bft) 100,00 %
30.09.2020 17:42 17,9 C 16,1 C 15,6 C 95 % 1012,0 hPa 0,0 l/m 0 min 0 min 52 W/m 0,0 km/h (0 Bft) 100,00 %
30.09.2020 17:44 17,9 C 16,1 C 15,6 C 95 % 1012,0 hPa 0,0 l/m 0 min 0 min 35 W/m 0,0 km/h (0 Bft) 100,00 %
30.09.2020 17:46 17,9 C 16,1 C 15,6 C 95 % 1012,1 hPa 0,0 l/m 0 min 0 min 20 W/m 0,0 km/h (0 Bft) 97,87 %
30.09.2020 17:48 17,9 C 16,1 C 15,6 C 95 % 1012,0 hPa 0,0 l/m 0 min 0 min 13 W/m 0,0 km/h (0 Bft) 100,00 %
30.09.2020 17:50 17,8 C 16,1 C 15,6 C 95 % 1012,0 hPa 0,0 l/m 0 min 0 min 12 W/m 0,0 km/h (0 Bft) 100,00 %
30.09.2020 17:52 17,8 C 16,1 C 15,6 C 95 % 1012,0 hPa 0,0 l/m 0 min 0 min 11 W/m 0,0 km/h (0 Bft) 95,74 %
30.09.2020 17:54 17,8 C 16,1 C 15,6 C 95 % 1012,0 hPa 0,0 l/m 0 min 0 min 9 W/m 0,0 km/h (0 Bft) 93,62 %
30.09.2020 17:56 17,8 C 15,6 C 15,6 C 95 % 1012,0 hPa 0,0 l/m 0 min 0 min 9 W/m 0,0 km/h (0 Bft) 97,83 %
30.09.2020 17:58 17,8 C 15,6 C 15,6 C 95 % 1012,0 hPa 0,0 l/m 0 min 0 min 9 W/m 0,0 km/h (0 Bft) 97,87 %
30.09.2020 18:00 17,8 C 15,6 C 15,0 C 95 % 1012,0 hPa 0,0 l/m 0 min 0 min 11 W/m 0,0 km/h (0 Bft) 95,74 %
30.09.2020 18:02 17,7 C 15,6 C 15,0 C 95 % 1012,0 hPa 0,0 l/m 0 min 0 min 12 W/m 0,0 km/h (0 Bft) 97,87 %
30.09.2020 18:04 17,7 C 15,6 C 15,0 C 95 % 1012,0 hPa 0,0 l/m 0 min 0 min 13 W/m 0,0 km/h (0 Bft) 97,87 %
30.09.2020 18:08 17,7 C 15,6 C 15,0 C 95 % 1011,9 hPa 0,0 l/m 0 min 0 min 16 W/m 0,0 km/h (0 Bft) 96,77 %
30.09.2020 18:10 17,6 C 15,6 C 15,0 C 95 % 1011,9 hPa 0,0 l/m 0 min 0 min 19 W/m 0,0 km/h (0 Bft) 95,74 %
30.09.2020 18:12 17,6 C 15,6 C 15,0 C 95 % 1011,9 hPa 0,0 l/m 0 min 0 min 20 W/m 0,0 km/h (0 Bft) 97,87 %
30.09.2020 18:14 17,6 C 15,6 C 15,0 C 95 % 1012,0 hPa 0,0 l/m 0 min 0 min 21 W/m 0,0 km/h (0 Bft) 97,87 %
30.09.2020 18:16 17,6 C 15,6 C 15,0 C 95 % 1012,0 hPa 0,0 l/m 0 min 0 min 20 W/m 0,0 km/h (0 Bft) 97,87 %
30.09.2020 18:18 17,6 C 15,6 C 15,0 C 95 % 1012,0 hPa 0,0 l/m 0 min 0 min 18 W/m 0,0 km/h (0 Bft) 97,87 %
30.09.2020 18:20 17,5 C 15,6 C 15,0 C 95 % 1012,0 hPa 0,0 l/m 0 min 0 min 20 W/m 0,0 km/h (0 Bft) 97,83 %
30.09.2020 18:22 17,5 C 15,6 C 15,0 C 95 % 1011,9 hPa 0,0 l/m 0 min 0 min 20 W/m 0,0 km/h (0 Bft) 97,87 %
30.09.2020 18:24 17,5 C 15,6 C 15,0 C 95 % 1011,9 hPa 0,0 l/m 0 min 0 min 17 W/m 0,0 km/h (0 Bft) 97,87 %
30.09.2020 18:26 17,4 C 15,6 C 15,0 C 95 % 1011,9 hPa 0,0 l/m 0 min 0 min 12 W/m 0,0 km/h (0 Bft) 97,87 %
30.09.2020 18:28 17,4 C 15,6 C 15,0 C 95 % 1011,9 hPa 0,0 l/m 0 min 0 min 9 W/m 0,0 km/h (0 Bft) 97,87 %
30.09.2020 18:30 17,4 C 15,6 C 15,0 C 95 % 1012,0 hPa 0,0 l/m 0 min 0 min 8 W/m 0,0 km/h (0 Bft) 97,87 %
30.09.2020 18:32 17,4 C 15,6 C 15,0 C 95 % 1012,0 hPa 0,0 l/m 0 min 2 min 7 W/m 0,0 km/h (0 Bft) 97,83 %
30.09.2020 18:34 17,4 C 15,6 C 15,0 C 95 % 1012,0 hPa 0,0 l/m 0 min 2 min 9 W/m 3,2 km/h (1 Bft) 97,87 %
30.09.2020 18:36 17,4 C 15,6 C 15,0 C 95 % 1012,0 hPa 0,0 l/m 0 min 2 min 9 W/m 3,2 km/h (1 Bft) 97,87 %
30.09.2020 18:38 17,3 C 15,6 C 15,0 C 95 % 1011,9 hPa 0,2 l/m 0 min 2 min 10 W/m 0,0 km/h (0 Bft) 97,87 %
30.09.2020 18:40 17,3 C 15,6 C 15,0 C 95 % 1011,9 hPa 0,2 l/m 0 min 2 min 12 W/m 0,0 km/h (0 Bft) 97,87 %
30.09.2020 18:42 17,3 C 15,6 C 15,0 C 95 % 1011,9 hPa 0,0 l/m 0 min 2 min 13 W/m 0,0 km/h (0 Bft) 97,83 %
30.09.2020 18:44 17,3 C 15,6 C 15,0 C 95 % 1011,9 hPa 0,0 l/m 0 min 0 min 14 W/m 0,0 km/h (0 Bft) 100,00 %
30.09.2020 18:46 17,2 C 15,6 C 15,0 C 96 % 1011,9 hPa 0,0 l/m 0 min 0 min 14 W/m 3,2 km/h (1 Bft) 100,00 %
30.09.2020 18:48 17,2 C 15,6 C 15,0 C 96 % 1011,9 hPa 0,0 l/m 0 min 2 min 12 W/m 6,4 km/h (2 Bft) 97,87 %
30.09.2020 18:50 17,2 C 15,0 C 15,0 C 96 % 1011,9 hPa 0,2 l/m 0 min 2 min 11 W/m 3,2 km/h (1 Bft) 97,87 %
30.09.2020 18:52 17,2 C 15,0 C 15,0 C 96 % 1011,9 hPa 0,0 l/m 0 min 2 min 9 W/m 6,4 km/h (2 Bft) 100,00 %
30.09.2020 18:54 17,2 C 15,0 C 15,0 C 96 % 1011,9 hPa 0,2 l/m 0 min 2 min 7 W/m 6,4 km/h (2 Bft) 100,00 %
30.09.2020 18:56 17,1 C 15,0 C 15,0 C 96 % 1011,9 hPa 0,0 l/m 0 min 2 min 6 W/m 0,0 km/h (0 Bft) 97,83 %
30.09.2020 18:58 17,1 C 15,0 C 15,0 C 96 % 1011,9 hPa 0,0 l/m 0 min 2 min 5 W/m 0,0 km/h (0 Bft) 100,00 %
30.09.2020 19:00 17,1 C 15,0 C 15,0 C 96 % 1011,9 hPa 0,0 l/m 0 min 2 min 0 W/m 3,2 km/h (1 Bft) 100,00 %
30.09.2020 19:02 17,1 C 15,0 C 15,0 C 96 % 1011,9 hPa 0,2 l/m 0 min 2 min 0 W/m 3,2 km/h (1 Bft) 100,00 %
30.09.2020 19:04 17,0 C 15,0 C 15,0 C 96 % 1011,9 hPa 0,0 l/m 0 min 2 min 0 W/m 0,0 km/h (0 Bft) 100,00 %
30.09.2020 19:06 17,0 C 15,0 C 15,0 C 96 % 1011,9 hPa 0,0 l/m 0 min 2 min 0 W/m 0,0 km/h (0 Bft) 95,65 %
30.09.2020 19:08 16,9 C 15,0 C 15,0 C 96 % 1011,9 hPa 0,0 l/m 0 min 2 min 0 W/m 0,0 km/h (0 Bft) 97,87 %
30.09.2020 19:10 16,9 C 15,0 C 15,0 C 96 % 1011,9 hPa 0,0 l/m 0 min 2 min 0 W/m 0,0 km/h (0 Bft) 97,87 %
30.09.2020 19:12 16,9 C 15,0 C 15,0 C 96 % 1011,9 hPa 0,0 l/m 0 min 2 min 0 W/m 0,0 km/h (0 Bft) 95,74 %
30.09.2020 19:14 16,8 C 15,0 C 15,0 C 96 % 1011,8 hPa 0,0 l/m 0 min 2 min 0 W/m 0,0 km/h (0 Bft) 100,00 %
30.09.2020 19:16 16,8 C 15,0 C 15,0 C 96 % 1011,8 hPa 0,0 l/m 0 min 2 min 0 W/m 0,0 km/h (0 Bft) 100,00 %
30.09.2020 19:18 16,8 C 15,0 C 15,0 C 96 % 1011,8 hPa 0,0 l/m 0 min 0 min 0 W/m 0,0 km/h (0 Bft) 97,83 %
30.09.2020 19:20 16,8 C 15,0 C 15,0 C 96 % 1011,7 hPa 0,0 l/m 0 min 0 min 0 W/m 0,0 km/h (0 Bft) 97,87 %
30.09.2020 19:22 16,8 C 15,0 C 15,0 C 96 % 1011,7 hPa 0,0 l/m 0 min 0 min 0 W/m 0,0 km/h (0 Bft) 95,74 %
30.09.2020 19:24 16,7 C 15,0 C 14,4 C 96 % 1011,6 hPa 0,0 l/m 0 min 0 min 0 W/m 0,0 km/h (0 Bft) 95,74 %
30.09.2020 19:26 16,7 C 15,0 C 14,4 C 96 % 1011,6 hPa 0,0 l/m 0 min 0 min 0 W/m 0,0 km/h (0 Bft) 97,87 %
30.09.2020 19:28 16,7 C 15,0 C 14,4 C 96 % 1011,6 hPa 0,0 l/m 0 min 0 min 0 W/m 0,0 km/h (0 Bft) 97,87 %
30.09.2020 19:30 16,7 C 15,0 C 14,4 C 96 % 1011,6 hPa 0,0 l/m 0 min 0 min 0 W/m 0,0 km/h (0 Bft) 95,65 %
30.09.2020 19:32 16,6 C 15,0 C 14,4 C 96 % 1011,6 hPa 0,0 l/m 0 min 0 min 0 W/m 0,0 km/h (0 Bft) 95,74 %
30.09.2020 19:34 16,6 C 15,0 C 14,4 C 96 % 1011,6 hPa 0,0 l/m 0 min 0 min 0 W/m 0,0 km/h (0 Bft) 93,62 %
30.09.2020 19:36 16,6 C 14,4 C 14,4 C 96 % 1011,6 hPa 0,0 l/m 0 min 0 min 0 W/m 0,0 km/h (0 Bft) 95,74 %
30.09.2020 19:38 16,6 C 14,4 C 14,4 C 97 % 1011,6 hPa 0,0 l/m 0 min 0 min 0 W/m 0,0 km/h (0 Bft) 93,62 %
30.09.2020 19:40 16,5 C 14,4 C 14,4 C 97 % 1011,6 hPa 0,0 l/m 0 min 0 min 0 W/m 0,0 km/h (0 Bft) 95,74 %
30.09.2020 19:42 16,5 C 14,4 C 14,4 C 97 % 1011,6 hPa 0,0 l/m 0 min 0 min 0 W/m 0,0 km/h (0 Bft) 93,48 %
30.09.2020 19:44 16,5 C 14,4 C 14,4 C 96 % 1011,7 hPa 0,0 l/m 0 min 0 min 0 W/m 0,0 km/h (0 Bft) 95,74 %
30.09.2020 19:46 16,4 C 14,4 C 14,4 C 96 % 1011,7 hPa 0,0 l/m 0 min 0 min 0 W/m 0,0 km/h (0 Bft) 93,62 %
30.09.2020 19:48 16,4 C 14,4 C 14,4 C 96 % 1011,8 hPa 0,0 l/m 0 min 0 min 0 W/m 0,0 km/h (0 Bft) 93,62 %
30.09.2020 19:50 16,4 C 14,4 C 14,4 C 96 % 1011,7 hPa 0,0 l/m 0 min 0 min 0 W/m 0,0 km/h (0 Bft) 91,49 %
30.09.2020 19:52 16,4 C 14,4 C 14,4 C 96 % 1011,7 hPa 0,0 l/m 0 min 0 min 0 W/m 0,0 km/h (0 Bft) 95,65 %
30.09.2020 19:54 16,3 C 14,4 C 14,4 C 96 % 1011,7 hPa 0,0 l/m 0 min 0 min 0 W/m 0,0 km/h (0 Bft) 93,62 %
30.09.2020 19:56 16,3 C 14,4 C 14,4 C 97 % 1011,6 hPa 0,0 l/m 0 min 0 min 0 W/m 0,0 km/h (0 Bft) 95,74 %
30.09.2020 19:58 16,3 C 14,4 C 14,4 C 97 % 1011,6 hPa 0,0 l/m 0 min 0 min 0 W/m 0,0 km/h (0 Bft) 93,62 %
30.09.2020 20:00 16,3 C 14,4 C 14,4 C 97 % 1011,6 hPa 0,2 l/m 0 min 0 min 0 W/m 0,0 km/h (0 Bft) 95,74 %
30.09.2020 20:02 16,2 C 14,4 C 14,4 C 97 % 1011,6 hPa 0,0 l/m 0 min 0 min 0 W/m 0,0 km/h (0 Bft) 95,74 %
30.09.2020 20:04 16,2 C 14,4 C 14,4 C 97 % 1011,5 hPa 0,0 l/m 0 min 0 min 0 W/m 0,0 km/h (0 Bft) 95,65 %
30.09.2020 20:06 16,2 C 14,4 C 14,4 C 97 % 1011,5 hPa 0,0 l/m 0 min 0 min 0 W/m 0,0 km/h (0 Bft) 93,62 %
30.09.2020 20:08 16,2 C 14,4 C 14,4 C 97 % 1011,6 hPa 0,0 l/m 0 min 0 min 0 W/m 0,0 km/h (0 Bft) 97,87 %
30.09.2020 20:10 16,2 C 14,4 C 14,4 C 97 % 1011,5 hPa 0,0 l/m 0 min 0 min 0 W/m 0,0 km/h (0 Bft) 97,87 %
30.09.2020 20:12 16,2 C 14,4 C 14,4 C 97 % 1011,4 hPa 0,0 l/m 0 min 0 min 0 W/m 0,0 km/h (0 Bft) 97,87 %
30.09.2020 20:14 16,2 C 14,4 C 14,4 C 97 % 1011,5 hPa 0,0 l/m 0 min 0 min 0 W/m 3,2 km/h (1 Bft) 95,74 %
30.09.2020 20:16 16,1 C 14,4 C 14,4 C 97 % 1011,5 hPa 0,0 l/m 0 min 0 min 0 W/m 0,0 km/h (0 Bft) 95,65 %
30.09.2020 20:18 16,1 C 14,4 C 14,4 C 97 % 1011,4 hPa 0,0 l/m 0 min 0 min 0 W/m 0,0 km/h (0 Bft) 98,31 %
30.09.2020 20:20 16,1 C 14,4 C 14,4 C 97 % 1011,4 hPa 0,0 l/m 0 min 0 min 0 W/m 0,0 km/h (0 Bft) 95,74 %
30.09.2020 20:22 16,1 C 14,4 C 14,4 C 97 % 1011,5 hPa 0,0 l/m 0 min 0 min 0 W/m 0,0 km/h (0 Bft) 97,87 %
30.09.2020 20:24 16,1 C 14,4 C 14,4 C 97 % 1011,4 hPa 0,0 l/m 0 min 0 min 0 W/m 0,0 km/h (0 Bft) 100,00 %
30.09.2020 20:26 16,1 C 14,4 C 14,4 C 97 % 1011,4 hPa 0,0 l/m 0 min 0 min 0 W/m 0,0 km/h (0 Bft) 100,00 %
30.09.2020 20:28 16,1 C 14,4 C 14,4 C 97 % 1011,4 hPa 0,0 l/m 0 min 0 min 0 W/m 0,0 km/h (0 Bft) 100,00 %
30.09.2020 20:30 16,1 C 14,4 C 14,4 C 97 % 1011,4 hPa 0,0 l/m 0 min 0 min 0 W/m 0,0 km/h (0 Bft) 100,00 %
30.09.2020 20:32 16,1 C 14,4 C 14,4 C 97 % 1011,4 hPa 0,0 l/m 0 min 0 min 0 W/m 0,0 km/h (0 Bft) 100,00 %
30.09.2020 20:34 16,1 C 14,4 C 14,4 C 97 % 1011,4 hPa 0,0 l/m 0 min 0 min 0 W/m 0,0 km/h (0 Bft) 100,00 %
30.09.2020 20:36 16,1 C 14,4 C 14,4 C 97 % 1011,4 hPa 0,0 l/m 0 min 0 min 0 W/m 3,2 km/h (1 Bft) 100,00 %
30.09.2020 20:38 16,1 C 14,4 C 14,4 C 97 % 1011,4 hPa 0,0 l/m 0 min 0 min 0 W/m 0,0 km/h (0 Bft) 100,00 %
30.09.2020 20:40 16,0 C 14,4 C 14,4 C 97 % 1011,4 hPa 0,0 l/m 0 min 0 min 0 W/m 3,2 km/h (1 Bft) 100,00 %
30.09.2020 20:42 16,0 C 14,4 C 14,4 C 97 % 1011,3 hPa 0,0 l/m 0 min 0 min 0 W/m 3,2 km/h (1 Bft) 100,00 %
30.09.2020 20:44 16,0 C 14,4 C 14,4 C 97 % 1011,3 hPa 0,0 l/m 0 min 0 min 0 W/m 6,4 km/h (2 Bft) 97,87 %
30.09.2020 20:46 16,0 C 14,4 C 14,4 C 97 % 1011,3 hPa 0,0 l/m 0 min 0 min 0 W/m 16,1 km/h (3 Bft) 95,74 %
30.09.2020 20:48 16,0 C 14,4 C 14,4 C 97 % 1011,3 hPa 0,0 l/m 0 min 0 min 0 W/m 12,9 km/h (3 Bft) 100,00 %
30.09.2020 20:50 16,0 C 14,4 C 13,9 C 97 % 1011,3 hPa 0,0 l/m 0 min 0 min 0 W/m 16,1 km/h (3 Bft) 100,00 %
30.09.2020 20:52 15,9 C 14,4 C 13,9 C 97 % 1011,2 hPa 0,0 l/m 0 min 0 min 0 W/m 12,9 km/h (3 Bft) 100,00 %
30.09.2020 20:54 15,9 C 14,4 C 13,9 C 97 % 1011,2 hPa 0,0 l/m 0 min 0 min 0 W/m 12,9 km/h (3 Bft) 100,00 %
30.09.2020 20:56 15,9 C 14,4 C 13,9 C 98 % 1011,2 hPa 0,0 l/m 0 min 0 min 0 W/m 12,9 km/h (3 Bft) 100,00 %
30.09.2020 20:58 15,9 C 14,4 C 13,9 C 98 % 1011,2 hPa 0,0 l/m 0 min 0 min 0 W/m 16,1 km/h (3 Bft) 97,87 %
30.09.2020 21:00 15,8 C 14,4 C 13,9 C 97 % 1011,2 hPa 0,0 l/m 0 min 0 min 0 W/m 12,9 km/h (3 Bft) 100,00 %
30.09.2020 21:02 15,8 C 14,4 C 13,9 C 97 % 1011,1 hPa 0,0 l/m 0 min 0 min 0 W/m 16,1 km/h (3 Bft) 100,00 %
30.09.2020 21:04 15,8 C 14,4 C 13,9 C 97 % 1011,1 hPa 0,0 l/m 0 min 0 min 0 W/m 19,3 km/h (3 Bft) 97,87 %
30.09.2020 21:06 15,7 C 14,4 C 13,9 C 97 % 1011,1 hPa 0,0 l/m 0 min 0 min 0 W/m 6,4 km/h (2 Bft) 100,00 %
30.09.2020 21:08 15,7 C 14,4 C 13,9 C 97 % 1011,0 hPa 0,0 l/m 0 min 0 min 0 W/m 16,1 km/h (3 Bft) 100,00 %
30.09.2020 21:10 15,7 C 14,4 C 13,9 C 97 % 1011,0 hPa 0,0 l/m 0 min 0 min 0 W/m 25,7 km/h (4 Bft) 100,00 %
30.09.2020 21:12 15,6 C 14,4 C 13,9 C 98 % 1011,0 hPa 0,0 l/m 0 min 0 min 0 W/m 12,9 km/h (3 Bft) 97,83 %
30.09.2020 21:14 15,6 C 14,4 C 13,9 C 98 % 1010,9 hPa 0,0 l/m 0 min 0 min 0 W/m 16,1 km/h (3 Bft) 100,00 %
30.09.2020 21:16 15,6 C 14,4 C 13,9 C 98 % 1010,9 hPa 0,0 l/m 0 min 0 min 0 W/m 22,5 km/h (4 Bft) 97,87 %
30.09.2020 21:18 15,6 C 14,4 C 13,9 C 98 % 1010,9 hPa 0,0 l/m 0 min 0 min 0 W/m 16,1 km/h (3 Bft) 97,87 %
30.09.2020 21:20 15,6 C 14,4 C 13,9 C 98 % 1010,9 hPa 0,0 l/m 0 min 0 min 0 W/m 12,9 km/h (3 Bft) 97,87 %
30.09.2020 21:22 15,5 C 14,4 C 13,9 C 98 % 1010,9 hPa 0,0 l/m 0 min 0 min 0 W/m 16,1 km/h (3 Bft) 95,65 %
30.09.2020 21:24 15,5 C 14,4 C 13,9 C 97 % 1010,8 hPa 0,0 l/m 0 min 0 min 0 W/m 12,9 km/h (3 Bft) 97,87 %
30.09.2020 21:26 15,5 C 14,4 C 13,9 C 97 % 1010,9 hPa 0,0 l/m 0 min 0 min 0 W/m 6,4 km/h (2 Bft) 97,87 %
30.09.2020 21:28 15,4 C 14,4 C 13,9 C 97 % 1010,9 hPa 0,0 l/m 0 min 0 min 0 W/m 9,7 km/h (2 Bft) 97,87 %
30.09.2020 21:30 15,4 C 14,4 C 13,9 C 97 % 1010,9 hPa 0,0 l/m 0 min 0 min 0 W/m 6,4 km/h (2 Bft) 97,87 %
30.09.2020 21:32 15,4 C 14,4 C 13,9 C 97 % 1010,8 hPa 0,0 l/m 0 min 0 min 0 W/m 6,4 km/h (2 Bft) 97,87 %
30.09.2020 21:34 15,4 C 14,4 C 13,9 C 97 % 1010,8 hPa 0,0 l/m 0 min 0 min 0 W/m 6,4 km/h (2 Bft) 97,83 %
30.09.2020 21:36 15,4 C 14,4 C 13,9 C 97 % 1010,7 hPa 0,0 l/m 0 min 0 min 0 W/m 12,9 km/h (3 Bft) 100,00 %
30.09.2020 21:38 15,4 C 14,4 C 13,9 C 98 % 1010,8 hPa 0,0 l/m 0 min 0 min 0 W/m 19,3 km/h (3 Bft) 97,87 %
30.09.2020 21:40 15,4 C 14,4 C 13,9 C 98 % 1010,8 hPa 0,0 l/m 0 min 0 min 0 W/m 16,1 km/h (3 Bft) 97,87 %
30.09.2020 21:42 15,4 C 14,4 C 13,3 C 98 % 1010,8 hPa 0,0 l/m 0 min 0 min 0 W/m 16,1 km/h (3 Bft) 97,87 %
30.09.2020 21:44 15,4 C 13,9 C 13,3 C 98 % 1010,8 hPa 0,0 l/m 0 min 0 min 0 W/m 12,9 km/h (3 Bft) 97,87 %
30.09.2020 21:46 15,3 C 13,9 C 13,3 C 98 % 1010,8 hPa 0,0 l/m 0 min 0 min 0 W/m 19,3 km/h (3 Bft) 97,83 %
30.09.2020 21:48 15,3 C 13,9 C 13,3 C 98 % 1010,7 hPa 0,0 l/m 0 min 0 min 0 W/m 19,3 km/h (3 Bft) 97,87 %
30.09.2020 21:50 15,3 C 13,9 C 13,3 C 98 % 1010,7 hPa 0,0 l/m 0 min 0 min 0 W/m 19,3 km/h (3 Bft) 97,87 %
30.09.2020 21:52 15,3 C 13,9 C 13,3 C 98 % 1010,7 hPa 0,0 l/m 0 min 0 min 0 W/m 6,4 km/h (2 Bft) 97,87 %
30.09.2020 21:54 15,2 C 13,9 C 13,3 C 98 % 1010,7 hPa 0,0 l/m 0 min 0 min 0 W/m 6,4 km/h (2 Bft) 97,14 %
30.09.2020 21:56 15,2 C 13,9 C 13,3 C 98 % 1010,7 hPa 0,0 l/m 0 min 0 min 0 W/m 6,4 km/h (2 Bft) 98,31 %
30.09.2020 21:58 15,2 C 13,9 C 13,3 C 98 % 1010,7 hPa 0,0 l/m 0 min 0 min 0 W/m 16,1 km/h (3 Bft) 94,29 %
30.09.2020 22:00 15,1 C 13,9 C 13,3 C 97 % 1010,7 hPa 0,0 l/m 0 min 0 min 0 W/m 12,9 km/h (3 Bft) 94,83 %
30.09.2020 22:02 15,1 C 13,9 C 13,3 C 97 % 1010,6 hPa 0,0 l/m 0 min 0 min 0 W/m 22,5 km/h (4 Bft) 100,00 %
30.09.2020 22:04 15,1 C 13,9 C 13,3 C 97 % 1010,7 hPa 0,0 l/m 0 min 0 min 0 W/m 6,4 km/h (2 Bft) 100,00 %
30.09.2020 22:06 15,0 C 13,9 C 12,8 C 97 % 1010,7 hPa 0,0 l/m 0 min 0 min 0 W/m 12,9 km/h (3 Bft) 95,74 %
30.09.2020 22:08 14,9 C 13,9 C 12,8 C 97 % 1010,7 hPa 0,0 l/m 0 min 0 min 0 W/m 12,9 km/h (3 Bft) 93,62 %
30.09.2020 22:10 14,9 C 13,9 C 12,8 C 97 % 1010,7 hPa 0,0 l/m 0 min 0 min 0 W/m 9,7 km/h (2 Bft) 95,74 %
30.09.2020 22:12 14,9 C 13,3 C 12,8 C 97 % 1010,7 hPa 0,0 l/m 0 min 0 min 0 W/m 16,1 km/h (3 Bft) 93,48 %
30.09.2020 22:14 14,8 C 13,3 C 12,8 C 97 % 1010,7 hPa 0,0 l/m 0 min 0 min 0 W/m 12,9 km/h (3 Bft) 95,74 %
30.09.2020 22:16 14,8 C 13,3 C 12,8 C 97 % 1010,7 hPa 0,0 l/m 0 min 0 min 0 W/m 6,4 km/h (2 Bft) 97,87 %
30.09.2020 22:18 14,8 C 13,3 C 12,8 C 97 % 1010,7 hPa 0,0 l/m 0 min 0 min 0 W/m 6,4 km/h (2 Bft) 95,74 %
30.09.2020 22:20 14,8 C 13,3 C 12,8 C 97 % 1010,7 hPa 0,0 l/m 0 min 0 min 0 W/m 0,0 km/h (0 Bft) 96,55 %
30.09.2020 22:22 14,7 C 13,3 C 12,8 C 97 % 1010,7 hPa 0,0 l/m 0 min 0 min 0 W/m 16,1 km/h (3 Bft) 95,74 %
30.09.2020 22:24 14,7 C 13,3 C 12,8 C 97 % 1010,7 hPa 0,0 l/m 0 min 0 min 0 W/m 6,4 km/h (2 Bft) 95,74 %
30.09.2020 22:26 14,7 C 13,3 C 12,8 C 97 % 1010,7 hPa 0,0 l/m 0 min 0 min 0 W/m 3,2 km/h (1 Bft) 95,74 %
30.09.2020 22:28 14,7 C 13,3 C 12,8 C 97 % 1010,6 hPa 0,0 l/m 0 min 0 min 0 W/m 16,1 km/h (3 Bft) 93,62 %
30.09.2020 22:30 14,6 C 13,3 C 12,8 C 97 % 1010,6 hPa 0,0 l/m 0 min 0 min 0 W/m 3,2 km/h (1 Bft) 95,74 %
30.09.2020 22:32 14,6 C 13,3 C 12,8 C 97 % 1010,6 hPa 0,0 l/m 0 min 0 min 0 W/m 12,9 km/h (3 Bft) 95,65 %
30.09.2020 22:34 14,6 C 13,3 C 12,8 C 97 % 1010,6 hPa 0,0 l/m 0 min 0 min 0 W/m 3,2 km/h (1 Bft) 95,74 %
30.09.2020 22:36 14,6 C 13,3 C 12,8 C 97 % 1010,6 hPa 0,0 l/m 0 min 0 min 0 W/m 3,2 km/h (1 Bft) 91,49 %
30.09.2020 22:38 14,6 C 13,3 C 12,8 C 97 % 1010,6 hPa 0,0 l/m 0 min 0 min 0 W/m 6,4 km/h (2 Bft) 95,74 %
30.09.2020 22:40 14,6 C 13,3 C 12,8 C 97 % 1010,6 hPa 0,0 l/m 0 min 0 min 0 W/m 16,1 km/h (3 Bft) 95,74 %
30.09.2020 22:42 14,5 C 13,3 C 12,8 C 97 % 1010,6 hPa 0,0 l/m 0 min 0 min 0 W/m 12,9 km/h (3 Bft) 95,74 %
30.09.2020 22:44 14,5 C 13,3 C 12,8 C 97 % 1010,5 hPa 0,0 l/m 0 min 0 min 0 W/m 6,4 km/h (2 Bft) 93,48 %
30.09.2020 22:46 14,5 C 13,3 C 12,8 C 97 % 1010,5 hPa 0,0 l/m 0 min 0 min 0 W/m 12,9 km/h (3 Bft) 95,74 %
30.09.2020 22:48 14,4 C 13,3 C 12,8 C 97 % 1010,5 hPa 0,0 l/m 0 min 0 min 0 W/m 19,3 km/h (3 Bft) 95,74 %
30.09.2020 22:50 14,4 C 13,3 C 12,8 C 97 % 1010,5 hPa 0,0 l/m 0 min 0 min 0 W/m 16,1 km/h (3 Bft) 95,74 %
30.09.2020 22:52 14,4 C 13,3 C 12,8 C 97 % 1010,5 hPa 0,0 l/m 0 min 0 min 0 W/m 12,9 km/h (3 Bft) 93,62 %
30.09.2020 22:54 14,4 C 13,3 C 12,8 C 97 % 1010,5 hPa 0,0 l/m 0 min 0 min 0 W/m 12,9 km/h (3 Bft) 93,62 %
30.09.2020 22:56 14,3 C 13,3 C 12,8 C 97 % 1010,5 hPa 0,0 l/m 0 min 0 min 0 W/m 3,2 km/h (1 Bft) 93,48 %
30.09.2020 22:58 14,3 C 13,3 C 12,8 C 97 % 1010,5 hPa 0,0 l/m 0 min 0 min 0 W/m 9,7 km/h (2 Bft) 97,87 %
30.09.2020 23:00 14,3 C 13,3 C 12,8 C 97 % 1010,5 hPa 0,0 l/m 0 min 0 min 0 W/m 6,4 km/h (2 Bft) 97,87 %
30.09.2020 23:02 14,3 C 13,3 C 12,8 C 97 % 1010,5 hPa 0,0 l/m 0 min 0 min 0 W/m 16,1 km/h (3 Bft) 97,87 %
30.09.2020 23:04 14,3 C 13,3 C 12,8 C 97 % 1010,5 hPa 0,0 l/m 0 min 0 min 0 W/m 19,3 km/h (3 Bft) 95,74 %
30.09.2020 23:06 14,3 C 13,3 C 12,8 C 97 % 1010,5 hPa 0,0 l/m 0 min 0 min 0 W/m 16,1 km/h (3 Bft) 97,83 %
30.09.2020 23:08 14,3 C 13,3 C 12,8 C 97 % 1010,6 hPa 0,0 l/m 0 min 0 min 0 W/m 16,1 km/h (3 Bft) 97,87 %
30.09.2020 23:10 14,3 C 12,8 C 12,8 C 97 % 1010,5 hPa 0,0 l/m 0 min 0 min 0 W/m 6,4 km/h (2 Bft) 100,00 %
30.09.2020 23:12 14,3 C 12,8 C 12,2 C 97 % 1010,5 hPa 0,0 l/m 0 min 0 min 0 W/m 12,9 km/h (3 Bft) 100,00 %
30.09.2020 23:14 14,3 C 12,8 C 12,2 C 97 % 1010,5 hPa 0,0 l/m 0 min 0 min 0 W/m 6,4 km/h (2 Bft) 97,87 %
30.09.2020 23:16 14,3 C 12,8 C 12,2 C 97 % 1010,4 hPa 0,0 l/m 0 min 0 min 0 W/m 6,4 km/h (2 Bft) 100,00 %
30.09.2020 23:18 14,3 C 12,8 C 12,2 C 97 % 1010,5 hPa 0,0 l/m 0 min 0 min 0 W/m 6,4 km/h (2 Bft) 100,00 %
30.09.2020 23:20 14,3 C 12,8 C 12,2 C 97 % 1010,5 hPa 0,0 l/m 0 min 0 min 0 W/m 6,4 km/h (2 Bft) 100,00 %
30.09.2020 23:22 14,3 C 12,8 C 12,2 C 97 % 1010,4 hPa 0,0 l/m 0 min 0 min 0 W/m 3,2 km/h (1 Bft) 100,00 %
30.09.2020 23:24 14,3 C 12,8 C 12,2 C 97 % 1010,4 hPa 0,0 l/m 0 min 0 min 0 W/m 6,4 km/h (2 Bft) 97,87 %
30.09.2020 23:26 14,3 C 12,8 C 12,2 C 97 % 1010,4 hPa 0,0 l/m 0 min 0 min 0 W/m 19,3 km/h (3 Bft) 100,00 %
30.09.2020 23:28 14,3 C 12,8 C 12,2 C 97 % 1010,3 hPa 0,0 l/m 0 min 0 min 0 W/m 3,2 km/h (1 Bft) 100,00 %
30.09.2020 23:30 14,3 C 12,8 C 12,2 C 97 % 1010,3 hPa 0,0 l/m 0 min 0 min 0 W/m 6,4 km/h (2 Bft) 100,00 %
30.09.2020 23:32 14,3 C 12,8 C 12,2 C 97 % 1010,3 hPa 0,0 l/m 0 min 0 min 0 W/m 6,4 km/h (2 Bft) 100,00 %
30.09.2020 23:34 14,3 C 12,8 C 12,2 C 97 % 1010,3 hPa 0,0 l/m 0 min 0 min 0 W/m 16,1 km/h (3 Bft) 100,00 %
30.09.2020 23:36 14,3 C 12,8 C 12,2 C 97 % 1010,3 hPa 0,0 l/m 0 min 0 min 0 W/m 16,1 km/h (3 Bft) 97,87 %
30.09.2020 23:38 14,3 C 12,8 C 12,2 C 97 % 1010,2 hPa 0,0 l/m 0 min 0 min 0 W/m 22,5 km/h (4 Bft) 100,00 %
30.09.2020 23:40 14,3 C 12,8 C 12,2 C 97 % 1010,2 hPa 0,0 l/m 0 min 0 min 0 W/m 3,2 km/h (1 Bft) 100,00 %
30.09.2020 23:42 14,3 C 12,8 C 12,2 C 97 % 1010,2 hPa 0,0 l/m 0 min 0 min 0 W/m 6,4 km/h (2 Bft) 100,00 %
30.09.2020 23:44 14,3 C 12,8 C 12,2 C 97 % 1010,2 hPa 0,0 l/m 0 min 0 min 0 W/m 12,9 km/h (3 Bft) 100,00 %
30.09.2020 23:46 14,3 C 12,8 C 12,2 C 97 % 1010,2 hPa 0,0 l/m 0 min 0 min 0 W/m 19,3 km/h (3 Bft) 97,87 %
30.09.2020 23:48 14,3 C 12,8 C 12,2 C 97 % 1010,2 hPa 0,0 l/m 0 min 0 min 0 W/m 12,9 km/h (3 Bft) 100,00 %
30.09.2020 23:50 14,3 C 12,8 C 12,2 C 97 % 1010,2 hPa 0,0 l/m 0 min 0 min 0 W/m 0,0 km/h (0 Bft) 100,00 %
30.09.2020 23:52 14,3 C 12,8 C 12,2 C 97 % 1010,2 hPa 0,0 l/m 0 min 0 min 0 W/m 22,5 km/h (4 Bft) 100,00 %
30.09.2020 23:54 14,2 C 13,3 C 12,2 C 97 % 1010,2 hPa 0,0 l/m 0 min 0 min 0 W/m 16,1 km/h (3 Bft) 100,00 %
30.09.2020 23:56 14,2 C 12,8 C 12,2 C 97 % 1010,2 hPa 0,0 l/m 0 min 0 min 0 W/m 6,4 km/h (2 Bft) 100,00 %
30.09.2020 23:58 14,2 C 12,8 C 12,2 C 97 % 1010,1 hPa 0,0 l/m 0 min 0 min 0 W/m 19,3 km/h (3 Bft) 100,00 %
_ Min-Zeit 00:00 04:36 05:04 15:00 23:58 - - - - 00:07 04:08
Minimum _ 12,2 C 11,1 C 10,6 C 82 % 1010,1 hPa - - - - 0,0 km/h (0 Bft) 91,30 %
_ Max-Zeit 15:42 13:14 14:40 07:14 00:22 16:40 10:10 01:38 13:14 14:12 00:08
Maximum _ 19,5 C 22,8 C 17,8 C 100 % 1017,4 hPa 1,0 l/m 2 min 2 min 713 W/m 25,7 km/h
O-SO (4 Bft)
100,00 %
Durchschnitt _ 15,0 C 14,6 C 13,5 C 96 % 1014,3 hPa #11,0 l/m #3:28 h #1:50 h 173 W/m 6,7 km/h (2 Bft) 97,55 %
© 2020 W. Hausmann